Login
Accedi

stefano alinovi
5 attività - Ultimo allenamento il 20/09/2017
20/09/2017 Visibile a tutti i soliti 5km, un pò meglio 5.44 26 00:30:55 10.56 Km\h pegasus
19/09/2017 Visibile a tutti Gravel con pioggia 63.46 293 03:27:41 18.33 Km\h Can sc 29
17/09/2017 Visibile a tutti mezzo MAM2K17 10.47 506 01:25:56 7.31 Km\h Habit
16/09/2017 Visibile a tutti prove di MAM2K17 15.86 671 02:49:52 5.6 Km\h Habit
13/09/2017 Visibile a tutti monte Manulo serale 33.81 744 02:47:23 12.12 Km\h Merida one-five-zero
12/09/2017 Visibile a tutti giretto in fat 26.5 568 02:41:53 9.82 Km\h Mad Fat
11/09/2017 Visibile a tutti corsetta del lunedì 5.21 39 00:31:09 10.04 Km\h pegasus
10/09/2017 Visibile a tutti corsetta domenicale 5.23 38 00:32:12 9.74 Km\h pegasus
09/09/2017 Visibile a tutti Val Toncina-Val Noveglia-Barigazzo 40.89 1311 04:58:31 8.22 Km\h Habit
07/09/2017 Visibile a tutti un giro a monte manulo(con sentiero feroce) 42.71 1195 03:57:32 10.79 Km\h Merida one-five-zero
06/09/2017 Visibile a tutti notturna al Combù 23.98 476 02:16:30 10.54 Km\h Merida one-five-zero
05/09/2017 Visibile a tutti un salto a Gropparello 100.49 1300 04:21:56 23.02 Km\h Merida 901
04/09/2017 Visibile a tutti clima ideale 7.05 56 00:33:45 12.53 Km\h pegasus
03/09/2017 Visibile a tutti martesana 2017 101.94 781 06:36:57 15.41 Km\h Can sc 29
02/09/2017 Visibile a tutti tra un'acqua e l'altra 23.35 534 02:15:02 10.38 Km\h Can sc 29
31/08/2017 Visibile a tutti girata varia 49.99 1010 03:53:45 12.83 Km\h Can sc 29
30/08/2017 Visibile a tutti pomeriggio con il Colonnello 31.54 364 02:32:46 12.39 Km\h Can sc 29
29/08/2017 Visibile a tutti centello di rientro 104.09 1255 04:17:19 24.27 Km\h Merida 901
26/08/2017 Visibile a tutti Grande Guerra mtb: centro addestramento truppe di Prosecco 21.92 200 02:22:53 9.2 Km\h Habit
25/08/2017 Visibile a tutti Monte Cocusso 55.35 1032 06:28:35 8.55 Km\h Habit
24/08/2017 Visibile a tutti Gorizia Trieste 66 1012 06:36:06 10 Km\h Habit
22/08/2017 Visibile a tutti Grande Guerra mtb: monte Hermada 45.39 894 05:18:46 8.54 Km\h Habit
22/08/2017 Visibile a tutti su e giù dal campeggio 13.58 411 01:34:21 8.63 Km\h Habit
21/08/2017 Visibile a tutti costa Triestina 45.21 897 05:04:55 8.9 Km\h Habit
20/08/2017 Visibile a tutti Grande Guerra mtb: Carso Isontino 54.21 1015 07:04:35 7.66 Km\h Habit
20/08/2017 Visibile a tutti scala santa 8.66 389 01:06:22 7.83 Km\h Habit
17/08/2017 Visibile a tutti sui calanchi col colonnello 54.25 1246 04:00:35 13.53 Km\h Can sc 29
15/08/2017 Visibile a tutti Grande Guerra mtb: forte luserna 33.33 804 03:55:22 8.5 Km\h Habit
14/08/2017 Visibile a tutti Grande Guerra mtb:tra i forti 42.82 1162 05:21:58 7.98 Km\h Habit
13/08/2017 Visibile a tutti Grande Guerra Trek: la Forra del Lupo 5.51 253 01:46:41 3.1 Km\h salomon
12/08/2017 Visibile a tutti Grande Guerra Trek: Spiz Verle 12.13 506 03:32:20 3.43 Km\h salomon
10/08/2017 Visibile a tutti ai piedi del S.Cristina 52.16 1336 04:11:58 12.42 Km\h Can sc 29
08/08/2017 Visibile a tutti Kanate e S.Cristina con Paolo 48.57 1564 04:17:12 11.33 Km\h Can sc 29
06/08/2017 Visibile a tutti FW del ritorno 5.07 40 00:49:11 6.18 Km\h mizuno cascadia
04/08/2017 Visibile a tutti ju de S.Antone 40.96 1485 05:06:32 8.02 Km\h Habit
02/08/2017 Visibile a tutti Grande Guerra mtb:il giro del Col di Lana 50.38 1507 04:51:09 10.38 Km\h Habit
01/08/2017 Visibile a tutti Nel regno dei Fanes 1 71.53 1520 05:32:29 12.91 Km\h Habit
31/07/2017 Visibile a tutti nel regno dei Fanes 40.08 1600 05:51:58 6.83 Km\h Habit
29/07/2017 Visibile a tutti postazioni settsass 6.48 250 02:28:16 2.62 Km\h salomon
28/07/2017 Visibile a tutti la nostra Hero 67.94 2814 08:45:49 7.75 Km\h Habit
27/07/2017 Visibile a tutti Grande Guerra trek: Sass di Stria 6.25 395 02:33:00 2.45 Km\h salomon
26/07/2017 Visibile a tutti Longiarù diverso 48.96 1250 04:23:00 11.17 Km\h Habit
25/07/2017 Visibile a tutti prati Armentara_Crusc 34.43 1005 03:56:37 8.73 Km\h Habit
23/07/2017 Visibile a tutti Grande Guerra mtb:postazioni artiglieria Col Gallina 22.05 894 03:16:05 6.75 Km\h Habit
22/07/2017 Visibile a tutti Pralongià Campolongo Gardena 47.05 1418 04:38:50 10.12 Km\h Habit
19/07/2017 Visibile a tutti la madonnina del S.Cristina 44.47 1192 03:59:16 11.15 Km\h Merida one-five-zero
18/07/2017 Visibile a tutti colli e vigneti piacentini 102.09 1611 04:25:18 23.09 Km\h Merida 901
16/07/2017 Visibile a tutti Il principato delle Pianazze 52.98 1535 07:46:21 6.82 Km\h Habit
13/07/2017 Visibile a tutti ravanando qua e là 51.74 1312 04:37:53 11.17 Km\h Can sc 29
12/07/2017 Visibile a tutti Cangelasio 15.67 409 02:45:04 5.7 Km\h salomon
11/07/2017 Visibile a tutti un giro a Bore 102 1577 04:26:23 22.97 Km\h Merida 901
09/07/2017 Visibile a tutti Buzzò 41.13 1334 05:57:17 6.91 Km\h Habit
08/07/2017 Visibile a tutti passo Scagina 44.35 1572 05:48:34 7.63 Km\h Habit
04/07/2017 Visibile a tutti Normal Morfasso 102.9 1519 04:23:11 23.46 Km\h Merida 901
04/07/2017 Visibile a tutti Lucciolata Notturna 10.12 208 01:24:54 7.15 Km\h pegasus
02/07/2017 Visibile a tutti Monte Caplone da Vesio 46.69 1794 05:52:10 7.95 Km\h Habit
01/07/2017 Visibile a tutti Flora e i guadini 42.87 855 03:50:09 11.18 Km\h Merida one-five-zero
29/06/2017 Visibile a tutti dopo il temporale 46.52 1217 03:46:52 12.3 Km\h Can sc 29
28/06/2017 Visibile a tutti appena in tempo 6.97 48 00:34:04 12.27 Km\h pegasus
27/06/2017 Visibile a tutti grande umidità 91.51 821 03:52:33 23.61 Km\h Merida 901
25/06/2017 Visibile a tutti col mostro sul crinale 41.24 1504 06:32:47 6.3 Km\h Habit
24/06/2017 Visibile a tutti mezzo giro col colonnello 58.79 1064 04:17:46 13.68 Km\h Can sc 29
23/06/2017 Visibile a tutti allenamento a Tabiano col caldo 12.71 215 01:19:38 9.58 Km\h Merida one-five-zero
22/06/2017 Visibile a tutti a zonzo con Danilo 45.4 1070 03:50:57 11.8 Km\h Can sc 29
21/06/2017 Visibile a tutti Lobo 11.45 239 00:48:17 14.22 Km\h Merida one-five-zero
20/06/2017 Visibile a tutti Prelerna 101.83 2155 05:04:47 20.05 Km\h Merida 901
18/06/2017 Visibile a tutti Grande Guerra mtb: Gallio-Vezzena 46.09 1280 05:11:26 8.88 Km\h Habit
17/06/2017 Visibile a tutti Grande Guerra mtb:operazione Anna 52.78 1397 06:31:47 8.08 Km\h Habit
15/06/2017 Visibile a tutti fabbrica delle foglie 43.09 1294 04:05:39 10.52 Km\h Merida one-five-zero
14/06/2017 Visibile a tutti cammiknata col caldo 15.18 428 02:44:15 5.54 Km\h salomon
13/06/2017 Visibile a tutti il giro delle fontane asciutte 91.01 1541 04:13:25 21.55 Km\h Merida 901
11/06/2017 Visibile a tutti Grande Guerra mtb: monte Pasubio 41.83 1512 05:00:27 8.35 Km\h Habit
10/06/2017 Visibile a tutti ravanando col Colonnello 46.73 875 04:05:54 11.4 Km\h Can sc 29
08/06/2017 Visibile a tutti Gir mal biglè 44.73 1076 03:39:59 12.2 Km\h Can sc 29
07/06/2017 Visibile a tutti accompagnando scuole 9.95 270 02:16:20 4.38 Km\h pegasus
07/06/2017 Visibile a tutti servizio scopa 20.73 90 02:04:58 9.95 Km\h Can sc 29
06/06/2017 Visibile a tutti per non allontanarsi troppo 103.31 1541 04:30:38 22.9 Km\h Merida 901
04/06/2017 Visibile a tutti Trail Pellegrino_escursione 10.12 341 02:11:11 4.63 Km\h salomon
03/06/2017 Visibile a tutti Abbots Way: da Borgotaro a Pontremoli 35.11 958 04:38:00 7.58 Km\h Habit
03/06/2017 Visibile a tutti Rientro a casa 11.57 118 00:49:34 14 Km\h Habit
02/06/2017 Visibile a tutti Abbots Way: da Salso a Borgotaro 82.73 2508 10:08:52 8.15 Km\h Habit
01/06/2017 Visibile a tutti Milanese in fretta con Danilo 51.24 1206 03:59:02 12.86 Km\h Can sc 29
31/05/2017 Visibile a tutti allenamento di tecnica a tabiano 21.15 565 02:11:50 9.63 Km\h Merida one-five-zero
30/05/2017 Visibile a tutti Parco Provinciale e altre salite 102.15 1870 04:43:58 21.58 Km\h Merida 901
28/05/2017 Visibile a tutti Monte Moria CAI Parma mtb 29.52 1020 03:53:04 7.6 Km\h Habit
27/05/2017 Visibile a tutti Flora e il Colonnello 48.69 1230 04:22:40 11.12 Km\h Can sc 29
26/05/2017 Visibile a tutti un giro in pasticceria 6.6 211 01:12:42 5.44 Km\h Merida one-five-zero
25/05/2017 Visibile a tutti sulle tracce del trail 46.15 1258 04:31:09 10.21 Km\h Habit
24/05/2017 Visibile a tutti un pò di Lucciola 9.11 218 01:25:10 6.42 Km\h salomon
23/05/2017 Visibile a tutti pensando al Giro 85.58 1644 03:55:38 21.79 Km\h Merida 901
21/05/2017 Visibile a tutti Terre Cimbre 50.44 1524 05:51:59 8.6 Km\h Habit
20/05/2017 Visibile a tutti facce da Marialonga 40.39 1001 03:38:04 11.11 Km\h Merida one-five-zero
19/05/2017 Visibile a tutti Tutti al Giro 26.28 177 01:20:25 19.61 Km\h Can sc 29
18/05/2017 Visibile a tutti camminata sui colli 11.21 308 01:54:07 5.9 Km\h salomon
17/05/2017 Visibile a tutti sassi e calanchi 31.56 855 03:01:02 10.46 Km\h Merida one-five-zero
16/05/2017 Visibile a tutti Pellizzon pass Classic 101.88 1681 04:24:01 23.15 Km\h Merida 901
14/05/2017 Visibile a tutti camminata francigena 12.82 358 03:00:11 4.27 Km\h salomon
13/05/2017 Visibile a tutti Monte Pizzocolo 42.71 1752 05:26:32 7.85 Km\h Habit
11/05/2017 Visibile a tutti Ricorsetta 6.95 54 00:33:27 12.47 Km\h pegasus
10/05/2017 Visibile a tutti attorno al Kanate ed altre amenità 50.38 1050 04:08:13 12.18 Km\h Merida one-five-zero
09/05/2017 Visibile a tutti non solo bitume 53.62 1428 03:55:52 13.64 Km\h Can sc 29
08/05/2017 Visibile a tutti ritorno a correre 6.93 51 00:33:03 12.59 Km\h pegasus
06/05/2017 Visibile a tutti prima della pioggia 29.22 692 02:37:09 11.15 Km\h Habit
05/05/2017 Visibile a tutti Gravel...ma non troppo 61.3 1234 03:24:07 18.02 Km\h Can sc 29
04/05/2017 Visibile a tutti Piandolo_Rigollo e rientro da Cergallina 58.75 1378 04:35:42 12.79 Km\h Can sc 29
01/05/2017 Visibile a tutti Aktar Knotto 13.65 628 01:53:30 7.22 Km\h Habit
30/04/2017 Visibile a tutti Grande Guerra Trek:Novegno e Priaforà 21.4 1091 06:35:41 3.24 Km\h salomon
29/04/2017 Visibile a tutti Grande Guerra mtb: la linea Marginale 47.62 892 04:53:59 9.72 Km\h Habit
28/04/2017 Visibile a tutti le cascate di Rotzo 4.46 223 01:40:14 2.67 Km\h scarponi
28/04/2017 Visibile a tutti Grande Guerra Trek: la Granatiera 4.95 192 01:31:58 3.23 Km\h scarponi
27/04/2017 Visibile a tutti Grande Guerra mtb:forte Verena 40.72 1437 04:36:42 8.83 Km\h Habit
25/04/2017 Visibile a tutti Grande Guerra Trek: sulle tracce degli inglesi 21.64 431 04:52:00 4.45 Km\h salomon
24/04/2017 Visibile a tutti Grande Guerra mtb: i Tre Monti 42.91 1140 04:43:28 9.08 Km\h Habit
23/04/2017 Visibile a tutti Grande Guerra mtb: Zebio-Mosciag-Inter Knotto e trenino 53.38 1232 05:51:40 9.11 Km\h Habit
22/04/2017 Visibile a tutti Grande Guerra mtb: Forte Inter Knotto-Zebio-Moschiag 30.08 1111 04:36:44 6.52 Km\h Habit
20/04/2017 Visibile a tutti un giro così 38.68 913 03:16:56 11.78 Km\h Can sc 29
19/04/2017 Visibile a tutti freddo sui colli 44.88 823 03:45:32 11.94 Km\h Can sc 29
18/04/2017 Visibile a tutti vigneti, calanchi e castelli 47.25 1031 03:50:07 12.32 Km\h Can sc 29
16/04/2017 Visibile a tutti Grande Guerra Gravel: il fronte del Piave 78.29 269 06:03:21 12.93 Km\h Can sc 29
15/04/2017 Visibile a tutti Gravel al Prosecco 106.13 1374 06:30:28 16.31 Km\h Can sc 29
11/04/2017 Visibile a tutti calanchi di Val Dordia 52.42 1204 04:14:41 12.35 Km\h Habit
10/04/2017 Visibile a tutti su e giù dal Kanate 15.19 545 03:03:49 4.96 Km\h salomon
09/04/2017 Visibile a tutti 3° uscita CAI fidenza MTb (avv mtb) 22.69 410 02:00:11 11.33 Km\h Habit
08/04/2017 Visibile a tutti Lodi-Lecco-Lodi Gravel 166.25 332 08:50:13 18.81 Km\h Can sc 29
06/04/2017 Visibile a tutti quasi un S.Cristina 46.39 1292 03:49:51 12.11 Km\h Can sc 29
04/04/2017 Visibile a tutti cergallina con variazione 40.83 1036 03:40:23 11.12 Km\h Habit
03/04/2017 Visibile a tutti un pò di "inverno" dopo la Marialonga 47.99 1256 03:52:32 12.38 Km\h Can sc 29
02/04/2017 Visibile a tutti attorno a Mariano 6.36 259 01:12:23 5.27 Km\h salomon
01/04/2017 Visibile a tutti Garda gravel 88.62 606 06:11:10 14.33 Km\h Can sc 29
31/03/2017 Visibile a tutti incontri ravvicinati 25.17 668 02:30:56 10.01 Km\h Mad Fat
30/03/2017 Visibile a tutti val baganza 34.81 1948 03:59:07 8.73 Km\h Habit
29/03/2017 Visibile a tutti nuova via al S.cristina 9.64 663 02:15:02 4.28 Km\h salomon
28/03/2017 Visibile a tutti ho tamponato una lepre (sulla milanese) 55.62 1284 04:00:56 13.85 Km\h Can sc 29
26/03/2017 Visibile a tutti 2 corso mtb CAI 8.51 203 01:26:32 5.9 Km\h Habit
26/03/2017 Visibile a tutti prova gara tabiano 19.42 541 03:07:11 9.16 Km\h Habit
25/03/2017 Visibile a tutti gravel alla bassa 62.08 50 03:35:59 17.25 Km\h Can sc 29
23/03/2017 Visibile a tutti improvvisata 37.18 858 03:06:49 11.94 Km\h Can sc 29
22/03/2017 Visibile a tutti sentiero(806A)integrale 32.67 922 03:23:27 9.63 Km\h Habit
22/03/2017 Visibile a tutti Pione 10.95 574 02:35:20 4.23 Km\h salomon
21/03/2017 Visibile a tutti Agitata 24.43 622 02:02:11 12 Km\h Can sc 29
20/03/2017 Visibile a tutti Melesi e Milanese 10.38 567 02:19:37 4.46 Km\h salomon
19/03/2017 Visibile a tutti tour del Barigazzo 33.72 1092 03:30:13 9.63 Km\h Habit
18/03/2017 Visibile a tutti stirone gravel 44.69 632 03:14:14 13.81 Km\h Can sc 29
17/03/2017 Visibile a tutti mariano 10.22 261 02:00:55 5.07 Km\h salomon
16/03/2017 Visibile a tutti in giro con Marcello 48.08 1262 04:48:31 10 Km\h Habit
15/03/2017 Visibile a tutti torre marchesi 5.12 192 01:14:14 4.14 Km\h pegasus
14/03/2017 Visibile a tutti rane alla Riservetta 37.18 1091 03:45:15 9.9 Km\h Habit
13/03/2017 Visibile a tutti in giro sui colli 16.47 221 02:03:19 8.01 Km\h salomon
12/03/2017 Visibile a tutti Grande Guerra mtb: sul fronte del Piave 49.43 75 03:31:28 14.03 Km\h Can sc 29
11/03/2017 Visibile a tutti grande Guerra gravel: Piave Gravel 135.19 183 08:21:33 16.17 Km\h Can sc 29
07/03/2017 Visibile a tutti vento sui colli 18.27 496 02:38:12 6.93 Km\h salomon
06/03/2017 Visibile a tutti inedita salita a Cergallina 45 1013 03:16:26 13.74 Km\h Can sc 29
05/03/2017 Visibile a tutti didattica CAI Fidenza mtb 11.05 37 01:15:11 8.82 Km\h Habit
05/03/2017 Visibile a tutti giro Gravel 40.03 333 02:40:13 14.99 Km\h Can sc 29
02/03/2017 Visibile a tutti per andare a fare Case Ratti 37.16 1081 03:30:39 10.58 Km\h Habit
01/03/2017 Visibile a tutti Fidenza_Salso 11.67 152 02:31:50 4.61 Km\h salomon
01/03/2017 Visibile a tutti ritorno alla bassa 42.42 21 02:18:22 18.39 Km\h Can sc 29
28/02/2017 Visibile a tutti macchina dal meccanico 48.26 205 02:47:15 17.31 Km\h Can sc 29
27/02/2017 Visibile a tutti fantaghirò 43.11 996 03:39:10 11.8 Km\h Habit
26/02/2017 Visibile a tutti cascate Pessola e Castelcorniglio 28.75 679 03:19:04 8.67 Km\h Habit
23/02/2017 Visibile a tutti il primo S.Cristina dell'anno 48.13 1433 04:18:18 11.18 Km\h Habit
22/02/2017 Visibile a tutti cascate del Pessola 18.69 593 03:20:03 5.61 Km\h salomon
21/02/2017 Visibile a tutti Kanate sofferto_discesa divertente 35.01 1048 03:33:51 9.82 Km\h Habit
20/02/2017 Visibile a tutti giro ampio con Rigollo 50.12 1033 03:36:56 13.86 Km\h Can sc 29
16/02/2017 Visibile a tutti corsetta con dolore 7.07 49 00:35:14 12.04 Km\h pegasus
15/02/2017 Visibile a tutti FW Lucciola 9.38 227 01:23:31 6.74 Km\h salomon
14/02/2017 Visibile a tutti il sole a Lusignani 48.18 1311 04:25:36 10.88 Km\h Habit
13/02/2017 Visibile a tutti come alla bassa 44.19 971 03:42:26 11.92 Km\h Habit
11/02/2017 Visibile a tutti il giro di Riviano 12.69 405 02:13:44 5.69 Km\h salomon
09/02/2017 Visibile a tutti Ri-Rigollo 46.33 1126 03:18:17 14.02 Km\h Can sc 29
08/02/2017 Visibile a tutti per camminare un pò 12.6 343 02:14:30 5.62 Km\h salomon
07/02/2017 Visibile a tutti un buon Rigollo 46.85 1111 03:21:40 13.94 Km\h Can sc 29
05/02/2017 Visibile a tutti che acqua! 8.89 167 01:27:14 6.11 Km\h salomon
04/02/2017 Visibile a tutti giro bagnato in compagnia 36.79 832 02:33:02 14.42 Km\h Can sc 29
03/02/2017 Visibile a tutti lucciola's tour 9.2 225 01:26:29 6.38 Km\h salomon
02/02/2017 Visibile a tutti più umido 10.58 93 01:16:33 8.29 Km\h pegasus
01/02/2017 Visibile a tutti nebbia e umidità 9.34 75 00:44:46 12.52 Km\h pegasus
31/01/2017 Visibile a tutti nella nebbia 39.73 886 02:59:55 13.25 Km\h Can sc 29
29/01/2017 Visibile a tutti cergallina con sorpresa(interessante) 39.34 796 03:10:46 12.37 Km\h Can sc 29
28/01/2017 Visibile a tutti camminata in collina 14.57 399 02:23:03 6.11 Km\h salomon
24/01/2017 Visibile a tutti dalle parti del S.Cristina 44.16 1139 03:42:25 11.91 Km\h Can sc 29
23/01/2017 Visibile a tutti tutto Kanate 38.78 1103 03:40:59 10.53 Km\h Habit
22/01/2017 Visibile a tutti voglia di neve, voglia di Fat 28.35 794 04:02:01 7.03 Km\h Mad Fat
21/01/2017 Visibile a tutti lucciola ospedaliera 9.47 229 01:30:05 6.3 Km\h salomon
19/01/2017 Visibile a tutti Case Ratti e Combù 30.68 856 02:53:24 10.62 Km\h Merida one-five-zero
18/01/2017 Visibile a tutti boscarella serale 12.5 400 02:15:20 5.54 Km\h salomon
16/01/2017 Visibile a tutti Mariano ed altre variazioni 32.53 862 02:44:59 11.83 Km\h Can sc 29
15/01/2017 Visibile a tutti attorno al Kanate 35.06 718 02:57:58 11.82 Km\h Can sc 29
14/01/2017 Visibile a tutti di costa in costa 12.8 483 02:12:05 5.81 Km\h salomon
13/01/2017 Visibile a tutti triste e nebbiosa 9.21 226 01:42:47 5.37 Km\h salomon
12/01/2017 Visibile a tutti monte manulo ben fred 30.91 809 03:03:58 10.08 Km\h Habit
11/01/2017 Visibile a tutti breve ma intensa 23.71 710 02:34:54 9.18 Km\h Merida one-five-zero
11/01/2017 Visibile a tutti in ottima compagnia 12.11 387 02:04:52 5.82 Km\h salomon
10/01/2017 Visibile a tutti aria da neve 9.04 237 01:27:51 6.18 Km\h salomon
09/01/2017 Visibile a tutti nuove vie al kanate 32.2 1104 03:16:52 9.81 Km\h Merida one-five-zero
08/01/2017 Visibile a tutti camminando sui colli 10.61 362 01:46:16 5.99 Km\h mizuno cascadia
07/01/2017 Visibile a tutti dopo la befana 33.05 466 02:26:51 13.51 Km\h Can sc 29
06/01/2017 Visibile a tutti lucciola luminosa 9.28 225 01:46:32 5.23 Km\h salomon
05/01/2017 Visibile a tutti vento forte a Cergallina 39.77 984 03:35:06 11.09 Km\h Habit
04/01/2017 Visibile a tutti serale 10.83 272 01:58:04 5.5 Km\h salomon
03/01/2017 Visibile a tutti me la sono andate a cercare 22.94 543 02:24:24 9.53 Km\h Mad Fat
02/01/2017 Visibile a tutti lucciola variata 9.22 234 01:43:30 5.34 Km\h salomon
31/12/2016 Visibile a tutti S.Silvestro col Colonnello 37.25 986 02:54:53 12.78 Km\h Can sc 29
31/12/2016 Visibile a tutti apripista 12.98 73 00:57:12 13.62 Km\h Can sc 29
30/12/2016 Visibile a tutti anche il fratellino 34.15 885 03:05:52 11.02 Km\h Merida one-five-zero
29/12/2016 Visibile a tutti con...trattura 11.42 106 01:04:02 10.7 Km\h pegasus
27/12/2016 Visibile a tutti pestando e ripestando 34.61 872 03:13:54 10.71 Km\h Habit
26/12/2016 Visibile a tutti Onomastico 36.29 807 03:16:12 11.1 Km\h Can sc 29
23/12/2016 Visibile a tutti antivigilia 30.8 842 02:54:36 10.59 Km\h Merida one-five-zero
22/12/2016 Visibile a tutti Kanate e varianti con Max 43.11 1026 03:57:39 10.88 Km\h Merida one-five-zero
21/12/2016 Visibile a tutti petrolifera 11.5 316 01:56:39 5.92 Km\h salomon
19/12/2016 Visibile a tutti aria da neve 11.35 263 02:14:27 5.07 Km\h salomon
18/12/2016 Visibile a tutti sul...Fat...della nebbia 23.56 680 02:26:06 9.67 Km\h Mad Fat
17/12/2016 Visibile a tutti il colonnello aggira l\'inverno 44.43 989 03:37:22 12.26 Km\h Can sc 29
15/12/2016 Visibile a tutti a Rigollo c\'è sempre il sole 46.08 1121 03:19:40 13.85 Km\h Can sc 29
13/12/2016 Visibile a tutti fuori e dentro la nebbia 30.48 798 02:47:15 10.93 Km\h Merida one-five-zero
12/12/2016 Visibile a tutti corso nella nebbia 9.54 61 00:45:15 12.65 Km\h pegasus
10/12/2016 Visibile a tutti Grande Guerra Esc: monte Pasubio 16.31 990 04:45:52 3.42 Km\h scarponi
09/12/2016 Visibile a tutti G.G.mtb: Campolongo Basson Costesin 33.32 658 03:19:19 10.03 Km\h Habit
08/12/2016 Visibile a tutti Grande Guerra mtb: Aktar Knotto 36.37 1249 04:53:36 7.43 Km\h Habit
06/12/2016 Visibile a tutti varianti Kanate 38.01 1049 03:25:08 11.12 Km\h Merida one-five-zero
05/12/2016 Visibile a tutti lucciolata cinese 14.69 338 02:25:49 6.04 Km\h salomon
04/12/2016 Visibile a tutti pranzo di fine anno 28.51 946 02:46:24 10.28 Km\h Merida one-five-zero
03/12/2016 Visibile a tutti ravanata col colonnello 39.83 1002 03:16:34 12.16 Km\h Can sc 29
02/12/2016 Visibile a tutti \"Fat\"ti famigliari 30.86 297 02:30:58 12.26 Km\h Mad Fat
30/11/2016 Visibile a tutti giro sconclusionato 38.34 962 02:39:06 14.46 Km\h Habit
29/11/2016 Visibile a tutti corsa affaticata 9.37 79 00:44:25 12.66 Km\h pegasus
28/11/2016 Visibile a tutti corsa sotto la pioggia 10.24 81 00:49:07 12.5 Km\h pegasus
27/11/2016 Visibile a tutti lusignani e rigollo 63.54 1585 04:24:01 14.44 Km\h Can sc 29
24/11/2016 Visibile a tutti tutto attorno a casa 36.72 882 03:00:03 12.24 Km\h Can sc 29
23/11/2016 Visibile a tutti a Lusignani per uscire dalla nebbia 49.59 1181 03:25:59 14.44 Km\h Can sc 29
23/11/2016 Visibile a tutti camminata serale 8.09 57 01:25:44 5.66 Km\h salomon
22/11/2016 Visibile a tutti allargo il giro 14.33 428 01:50:35 7.77 Km\h salomon
20/11/2016 Visibile a tutti con Flora e Pat per nuovi sentieri 40.11 911 04:19:08 9.29 Km\h Merida one-five-zero
19/11/2016 Visibile a tutti cinghialata col colonnello 39.23 1002 03:22:19 11.63 Km\h Merida one-five-zero
18/11/2016 Visibile a tutti corsetta con allunghi 6.34 49 00:38:00 10.01 Km\h pegasus
17/11/2016 Visibile a tutti fat prova sentieri 35.29 928 03:43:38 9.47 Km\h Mad Fat
16/11/2016 Visibile a tutti FW serale 12.11 88 01:51:45 6.5 Km\h salomon
15/11/2016 Visibile a tutti rigollo scorrevole 47.14 1191 03:24:16 13.85 Km\h Can sc 29
14/11/2016 Visibile a tutti sul far della pioggerella 11.11 318 01:23:05 8.02 Km\h pegasus
13/11/2016 Visibile a tutti bocca fortini 37.69 1339 04:23:20 8.59 Km\h Habit
12/11/2016 Visibile a tutti foglie gialle...con giallo 35.19 745 02:59:18 11.78 Km\h Can sc 29
11/11/2016 Visibile a tutti cielo grigio su...foglie gialle giù 37.57 820 02:48:32 13.38 Km\h Can sc 29
10/11/2016 Visibile a tutti uscita con Andrea e Nicola 36.98 954 03:15:03 11.38 Km\h Merida one-five-zero
08/11/2016 Visibile a tutti cinghialando con Flora 31.75 755 03:07:28 10.16 Km\h Merida one-five-zero
07/11/2016 Visibile a tutti un pò si cammina, un pò di corsa, molte telefonate 12.79 308 01:45:44 7.26 Km\h salomon
07/11/2016 Visibile a tutti uscita pomeridiana in compagnia 33.73 649 02:44:17 12.32 Km\h Merida one-five-zero
06/11/2016 Visibile a tutti Fit Walking domenicale 10.47 131 01:44:12 6.03 Km\h salomon
04/11/2016 Visibile a tutti Fat Adventures 26.05 553 02:37:50 9.9 Km\h Mad Fat
03/11/2016 Visibile a tutti Fidenza-Salso 44.04 912 03:29:54 12.59 Km\h Can sc 29
03/11/2016 Visibile a tutti salso Fidenza 14.68 13 02:56:11 5 Km\h mizuno cascadia
02/11/2016 Visibile a tutti sulle orme dei dinosauri 26.42 695 03:10:52 8.31 Km\h Habit
01/11/2016 Visibile a tutti Levico: il giro delle antiche tradizioni 37.8 935 04:22:15 8.65 Km\h Habit
31/10/2016 Visibile a tutti Menador, sentiero della pace con variante finale 33.7 1054 04:01:43 8.37 Km\h Habit
29/10/2016 Visibile a tutti \"fat\"iche postinfluenzali 22.36 633 02:14:53 9.95 Km\h Mad Fat
27/10/2016 Visibile a tutti una grattata di tartufo 20.69 654 02:23:37 8.64 Km\h Habit
26/10/2016 Visibile a tutti S.Rocchino 12.46 150 02:18:23 5.4 Km\h salomon
25/10/2016 Visibile a tutti Lucciola allungata 11.11 281 02:13:38 4.99 Km\h salomon
23/10/2016 Visibile a tutti Cai Fidenza mtb: monte Creino 34.02 1262 03:47:50 8.96 Km\h Habit
21/10/2016 Visibile a tutti pedalata gioiosa 40.74 1078 03:05:54 13.15 Km\h Can sc 29
18/10/2016 Visibile a tutti 4 passi alla Lucciola 9.06 229 01:52:15 4.84 Km\h mizuno cascadia
17/10/2016 Visibile a tutti ricognizione Creino 40.79 1422 05:25:05 7.53 Km\h Habit
15/10/2016 Visibile a tutti Rigollo gravel 45.12 1174 03:45:59 11.98 Km\h Can sc 29
13/10/2016 Visibile a tutti \"fat\"ta pioggia 19.8 511 01:55:53 10.25 Km\h Mad Fat
12/10/2016 Visibile a tutti in giro col cosmico e Sabrina 54.43 675 03:50:43 14.16 Km\h Can sc 29
11/10/2016 Visibile a tutti sentieri inconsueti 45.41 1108 03:41:36 12.3 Km\h Can sc 29
09/10/2016 Visibile a tutti Esc CAI Fidenza mtb: S.Donnino2K16 67.1 825 04:42:45 14.24 Km\h Can sc 29
08/10/2016 Visibile a tutti serale col fresco 9.35 72 00:45:31 12.33 Km\h pegasus
07/10/2016 Visibile a tutti La Milanese vestita a festa 55.36 1336 04:23:10 12.62 Km\h Can sc 29
05/10/2016 Visibile a tutti in caso di pioggia 41.04 602 02:43:15 15.08 Km\h Can sc 29
04/10/2016 Visibile a tutti dalla Maghina al S.Cristina 52.47 1470 04:35:07 11.44 Km\h Habit
02/10/2016 Visibile a tutti esc cai pr mtb:castagni della lunigiana 30.39 796 03:54:03 7.79 Km\h Habit
01/10/2016 Visibile a tutti cai pr mtb:corso bimbi boschi carrega 12.38 168 01:31:17 8.14 Km\h Can sc 29
30/09/2016 Visibile a tutti i 500m di Flora 21.84 454 02:14:32 9.74 Km\h Can sc 29
29/09/2016 Visibile a tutti riva-tremalzo 63.01 2011 06:57:08 9.06 Km\h Habit
28/09/2016 Visibile a tutti varainte ruttok al kanate 35.87 1000 03:29:43 10.26 Km\h Habit
27/09/2016 Visibile a tutti in giro col campione 62.8 1411 04:06:56 15.26 Km\h Can sc 29
25/09/2016 Visibile a tutti attorno al kanate con Flora 34.17 868 03:21:19 10.18 Km\h Habit
24/09/2016 Visibile a tutti Corso bimbi CAI : Parma Morta 13.69 20 01:11:23 11.51 Km\h Can sc 29
23/09/2016 Visibile a tutti stoccafisso morbido 9.39 69 00:45:45 12.32 Km\h pegasus
22/09/2016 Visibile a tutti Parma Morta 59.8 57 03:27:47 17.27 Km\h Can sc 29
21/09/2016 Visibile a tutti stoccafisso 11.78 83 00:59:40 11.85 Km\h pegasus
19/09/2016 Visibile a tutti giretto in compagnia 45.21 999 03:42:15 12.21 Km\h Can sc 29
17/09/2016 Visibile a tutti corso mtb bimbi CAI Parma 31.6 132 02:32:03 12.47 Km\h Merida one-five-zero
16/09/2016 Visibile a tutti prove di esc di S.Donnino 61.59 860 04:13:14 14.59 Km\h Habit
14/09/2016 Visibile a tutti sopralluogo 33.33 445 02:30:20 13.3 Km\h Habit
13/09/2016 Visibile a tutti ritorno a Prelerna 101.69 2148 04:53:20 20.8 Km\h Merida 901
12/09/2016 Visibile a tutti vod c\'men beg 7.26 53 00:36:51 11.82 Km\h pegasus
11/09/2016 Visibile a tutti APV:lago Santo p.se - p.so del Cerreto 54.86 1602 07:08:19 7.68 Km\h Habit
10/09/2016 Visibile a tutti AVP:Ghiare di Berceto-lago Santo Pse 28.89 1527 04:23:23 6.58 Km\h Habit
09/09/2016 Visibile a tutti aperirunning 9.31 67 00:45:36 12.25 Km\h pegasus
08/09/2016 Visibile a tutti Terre salmastre 37.75 916 03:14:43 11.63 Km\h Can sc 29
06/09/2016 Visibile a tutti attorno al parco provinciale 101.38 1583 04:25:02 22.95 Km\h Merida 901
05/09/2016 Visibile a tutti Molto Kanate 41.95 1164 03:48:58 10.99 Km\h Merida one-five-zero
04/09/2016 Visibile a tutti Grande Guerra mtb: monte Vaccaresse 18.4 746 02:57:25 6.22 Km\h Habit
03/09/2016 Visibile a tutti Grande Guerra mtb: Monte Novegno, l\'ultimo baluardo 28.86 1131 04:17:50 6.72 Km\h Habit
01/09/2016 Visibile a tutti di la dal ceno 56.77 1482 04:26:35 12.78 Km\h Can sc 29
31/08/2016 Visibile a tutti serale test Merida 25.79 619 02:04:57 12.38 Km\h Merida one-five-zero
30/08/2016 Visibile a tutti putost che gnent 62.52 940 02:44:18 22.83 Km\h Merida 901
29/08/2016 Visibile a tutti perchè domani piove 47.81 1215 03:57:55 12.06 Km\h Can sc 29
28/08/2016 Visibile a tutti Grande Guerra mtb: monte Ortigara 48.81 1363 05:44:19 8.51 Km\h Habit
26/08/2016 Visibile a tutti FW distensivo 9.46 66 01:11:43 7.91 Km\h salomon
25/08/2016 Visibile a tutti canalone, Flash e altre amenità 46.15 1679 04:01:26 11.47 Km\h Habit
24/08/2016 Visibile a tutti Flora e la Val Dordia 26.61 574 02:47:25 9.54 Km\h Habit
23/08/2016 Visibile a tutti un Pellizzone un pò più lungo 115.18 1647 04:57:38 23.22 Km\h Merida 901
22/08/2016 Visibile a tutti Lunedì in mtb sui colli 52.21 1191 03:47:25 13.77 Km\h Can sc 29
21/08/2016 Visibile a tutti FW domenicale 9.48 72 01:26:27 6.58 Km\h salomon
20/08/2016 Visibile a tutti lago scaffaiolo 45.78 1647 06:43:03 6.81 Km\h Habit
19/08/2016 Visibile a tutti riprendo a corerre 10.23 75 00:50:52 12.07 Km\h pegasus
18/08/2016 Visibile a tutti con Danilo in Val Dordia 53.25 1195 04:08:15 12.87 Km\h Can sc 29
17/08/2016 Visibile a tutti ritorno sui colli 33.06 810 02:50:43 11.62 Km\h Can sc 29
16/08/2016 Visibile a tutti ritorno a Morfasso 109.68 1720 04:28:44 24.49 Km\h Merida 901
13/08/2016 Visibile a tutti attorno al Sas d\'la Crusc 54.49 1695 06:10:24 8.83 Km\h Habit
12/08/2016 Visibile a tutti Longiarù 2k16 50.07 1306 05:17:25 9.46 Km\h Habit
11/08/2016 Visibile a tutti La Crusc nuovo tracciato 33.77 933 03:53:24 8.68 Km\h Habit
09/08/2016 Visibile a tutti Pralongià prima della pioggia 26.65 783 02:53:10 9.23 Km\h Habit
08/08/2016 Visibile a tutti Grande Guerra Trek: sentiero dei Kaiserjager-Cengia Martini 9.77 884 03:44:49 2.61 Km\h scarponi
07/08/2016 Visibile a tutti Grande Guerra Trek: comm mina Col di Lana 17.39 1236 05:38:10 3.09 Km\h salomon
06/08/2016 Visibile a tutti Grande Guerra trek:ascoltando Brunner 10.82 732 03:13:48 3.35 Km\h salomon
04/08/2016 Visibile a tutti Grande Guerra Trek: Castello di Andraz-ridotta Lamarmora 14.27 803 05:06:57 2.79 Km\h scarponi
03/08/2016 Visibile a tutti S.Leonardo-Corvara-passo Gardena-S.cassiano 53.84 1166 04:22:05 12.33 Km\h Habit
02/08/2016 Visibile a tutti campeggio-Colfosco-Corvara 20.64 702 05:03:42 4.08 Km\h salomon
31/07/2016 Visibile a tutti Asiago 14.23 183 03:42:06 3.85 Km\h salomon
30/07/2016 Visibile a tutti Grande Guerra mtb: sulle tracce della Brigata Sassari- monte Fior e le Melette 58.47 1279 05:48:03 10.08 Km\h Habit
28/07/2016 Visibile a tutti monte inverno...che non volevo fare 47 1316 03:48:18 12.35 Km\h Can sc 29
26/07/2016 Visibile a tutti il giro delle strade dimenticate 108.33 2251 05:27:20 19.86 Km\h Merida 901
25/07/2016 Visibile a tutti FW in crescendo 9.41 67 01:08:28 8.24 Km\h salomon
24/07/2016 Visibile a tutti Barigazzo e Lavacchielli 26.4 818 02:49:48 9.33 Km\h Habit
23/07/2016 Visibile a tutti Sabato col colonnello 40.49 1270 03:37:24 11.17 Km\h Can sc 29
22/07/2016 Visibile a tutti FW soddisfacente 9.46 72 01:10:36 8.04 Km\h mizuno cascadia
21/07/2016 Visibile a tutti milanese con varianti 57.19 1614 04:48:51 11.88 Km\h Habit
19/07/2016 Visibile a tutti quasi da gravel 97.07 2059 04:46:11 20.35 Km\h Merida 901
18/07/2016 Visibile a tutti ritorno al FW 5.47 36 00:49:40 6.61 Km\h mizuno cascadia
17/07/2016 Visibile a tutti quattro passi sul Carameto 6.1 457 01:31:10 4.02 Km\h salomon
16/07/2016 Visibile a tutti Grande Guerra Mtb: monte Cimone di Tonezza 43.61 1331 05:44:53 7.59 Km\h Habit
15/07/2016 Visibile a tutti in mtb a lavorare 23.5 4 01:01:41 22.86 Km\h Can sc 29
14/07/2016 Visibile a tutti W il Belgio 34.33 920 03:20:45 10.26 Km\h Can sc 29
12/07/2016 Visibile a tutti sulle tracce di Nicoletta 91.92 1392 04:03:11 22.68 Km\h Merida 901
11/07/2016 Visibile a tutti Apnea 45.14 1194 03:45:34 12.01 Km\h Habit
09/07/2016 Visibile a tutti Grande Guerra mtb: monte Cengio-monte Kaberlaba 58.43 1426 06:56:44 8.41 Km\h Habit
08/07/2016 Visibile a tutti verifica sentieri 5.14 367 01:43:35 2.98 Km\h salomon
07/07/2016 Visibile a tutti Test Drive 49.83 1382 04:54:08 10.17 Km\h Habit
05/07/2016 Visibile a tutti Pellizzone traditional 107.06 1577 04:40:11 22.93 Km\h Merida 901
04/07/2016 Visibile a tutti Boffalora Classic 14.94 453 02:18:23 6.48 Km\h salomon
03/07/2016 Visibile a tutti a caccia di ombre 43.69 968 04:01:05 10.87 Km\h Can sc 29
02/07/2016 Visibile a tutti su e giù per il Kanate 43.08 985 03:43:20 11.57 Km\h Can sc 29
01/07/2016 Visibile a tutti talita kum 15.99 405 02:33:55 6.23 Km\h salomon
30/06/2016 Visibile a tutti esplorazioni negative 56.26 1252 04:48:07 11.72 Km\h Can sc 29
28/06/2016 Visibile a tutti non come volevo 130.85 2204 06:10:10 21.21 Km\h Merida 901
27/06/2016 Visibile a tutti estate sui colli 16.24 580 02:51:11 5.69 Km\h salomon
26/06/2016 Visibile a tutti Grande Guerra Mtb: Forte Belvedere e altre postazioni 22.84 610 02:59:39 7.63 Km\h Can sc 29
25/06/2016 Visibile a tutti Grande Guerra Mtb: Cima Vezzena e altri forti 43.71 1110 04:46:15 9.16 Km\h Can sc 29
23/06/2016 Visibile a tutti Maghina, S.cristina al caldo della Milanese 62.6 1443 05:21:08 11.7 Km\h Can sc 29
22/06/2016 Visibile a tutti kanate di sera, bel tempo si spera 29.73 800 02:47:55 10.62 Km\h Can sc 29
21/06/2016 Visibile a tutti Tra Dosso e Barigazzo 123.54 1655 05:13:12 23.67 Km\h Merida 901
20/06/2016 Visibile a tutti corsetta di propva 9.34 72 00:47:10 11.89 Km\h pegasus
19/06/2016 Visibile a tutti grande guerra mtb: Forte Colle delle Benne-forte Tenna 19.09 377 02:05:30 9.13 Km\h Can sc 29
18/06/2016 Visibile a tutti Grande Guerra mtb: strada della Fricca-sentiero della Pace 53.02 1116 05:44:48 9.23 Km\h Can sc 29
16/06/2016 Visibile a tutti zigozago kanate+rigollo 51.79 1279 03:59:33 12.97 Km\h Can sc 29
15/06/2016 Visibile a tutti patatrac col pedale 21.37 439 02:19:01 9.22 Km\h Merida one-five-zero
14/06/2016 Visibile a tutti inseguito (e preso) dalla pioggia 85.89 1829 04:08:16 20.76 Km\h Merida 901
13/06/2016 Visibile a tutti tendinite 9.36 72 00:44:25 12.65 Km\h pegasus
12/06/2016 Visibile a tutti S.Cristina CAI Fidenza mtb 34.04 1028 03:50:06 8.88 Km\h Can sc 29
11/06/2016 Visibile a tutti case Ratti/nine del lobo 23.16 628 02:21:28 9.82 Km\h Merida one-five-zero
10/06/2016 Visibile a tutti guadini 41.3 696 03:29:08 11.85 Km\h Merida one-five-zero
09/06/2016 Visibile a tutti tanta umidità e gambe pesanti 9.32 64 00:45:30 12.29 Km\h pegasus
08/06/2016 Visibile a tutti \"S\" come salita 76.09 379 02:58:04 25.64 Km\h Merida 901
07/06/2016 Visibile a tutti prove di S:Cristina 57.78 1588 04:33:02 12.7 Km\h Can sc 29
06/06/2016 Visibile a tutti uscita tranquilla 75.71 1238 03:22:29 22.44 Km\h Merida 901
05/06/2016 Visibile a tutti pan e formaj 10.67 219 03:03:18 3.49 Km\h salomon
04/06/2016 Visibile a tutti camminata nuvolosa con fango 17.51 471 03:19:55 5.26 Km\h mizuno cascadia
03/06/2016 Visibile a tutti rincorso dalla pioggia 24.83 574 02:21:11 10.55 Km\h Merida one-five-zero
02/06/2016 Visibile a tutti un kanate di fretta 31.05 923 02:24:05 12.93 Km\h Can sc 29
01/06/2016 Visibile a tutti allungo il percorso 11.69 86 00:56:26 12.43 Km\h pegasus
31/05/2016 Visibile a tutti con il vento...contrario 92.05 1652 04:18:47 21.34 Km\h Merida 901
30/05/2016 Visibile a tutti col mal di pancia 10.18 74 00:49:43 12.29 Km\h pegasus
28/05/2016 Visibile a tutti tremalzo classi CAI Fidenza mtb 43.85 1526 04:39:11 9.42 Km\h Can sc 29
27/05/2016 Visibile a tutti tanto per muoversi un pò 9.35 77 00:44:07 12.72 Km\h pegasus
26/05/2016 Visibile a tutti Kanate, S.Cristina e altre rogne 57.4 1741 05:12:39 11.02 Km\h Can sc 29
25/05/2016 Visibile a tutti venuta bene 9.37 76 00:43:11 13.01 Km\h pegasus
24/05/2016 Visibile a tutti serie di strappi 78.04 1252 03:22:23 23.14 Km\h Merida 901
23/05/2016 Visibile a tutti tra sereno e temporali 9.31 66 00:44:26 12.57 Km\h pegasus
22/05/2016 Visibile a tutti labirinto e fontanellato 30.76 74 02:21:02 13.08 Km\h Can sc 29
21/05/2016 Visibile a tutti culatello fatto 79.15 89 06:08:39 12.88 Km\h Can sc 29
20/05/2016 Visibile a tutti oh yeah barigazzo 32.19 1396 04:35:47 7 Km\h scott genius lt 30
18/05/2016 Visibile a tutti Montemanulo serale con Flora 33.74 739 02:57:54 11.38 Km\h Can sc 29
17/05/2016 Visibile a tutti improvvisando nel piacentino 102.08 1690 04:20:56 23.47 Km\h Merida 901
16/05/2016 Visibile a tutti corsetta non male 9.26 81 00:42:50 12.97 Km\h pegasus
15/05/2016 Visibile a tutti giro fra le Marocche 37.74 347 03:09:22 11.96 Km\h Can sc 29
14/05/2016 Visibile a tutti Tremalzo Classic da Vesio 40.28 1491 04:28:30 9 Km\h Can sc 29
12/05/2016 Visibile a tutti lungo giro alla bassa 95.51 224 05:43:50 16.67 Km\h Can sc 29
10/05/2016 Visibile a tutti Rigollo classico invernale 47.58 1111 03:41:13 12.9 Km\h Can sc 29
09/05/2016 Visibile a tutti gambadilegno 9.37 71 00:46:26 12.1 Km\h pegasus
08/05/2016 Visibile a tutti Escursione CAI fidenza mtb: Vigneti e Calanchi 56.95 1064 04:32:42 12.53 Km\h Can sc 29
07/05/2016 Visibile a tutti puntata a Lugagnano 53.35 1148 03:50:05 13.91 Km\h Can sc 29
06/05/2016 Visibile a tutti volutamente tranquilla 9.72 76 00:47:33 12.27 Km\h pegasus
05/05/2016 Visibile a tutti prove di escursione 45.59 1167 04:08:15 11.02 Km\h scott genius lt 30
04/05/2016 Visibile a tutti serale leggera 22.18 129 01:27:56 15.13 Km\h Merida one-five-zero
03/05/2016 Visibile a tutti il centauro 104.05 1325 04:10:04 24.96 Km\h Merida 901
02/05/2016 Visibile a tutti pausa pranzo 9.36 68 00:45:36 12.32 Km\h pegasus
01/05/2016 Visibile a tutti madonna dell\'Olmo 9.21 296 02:44:45 3.36 Km\h salomon
30/04/2016 Visibile a tutti escursione con i fortissimi 48.76 769 02:40:07 18.27 Km\h Can sc 29
29/04/2016 Visibile a tutti bella uscita sui colli 17.46 560 02:26:07 7.17 Km\h salomon
28/04/2016 Visibile a tutti Mad Fat...su e giù dal parco di Tabiano 34.08 1112 03:52:11 8.81 Km\h Mad Fat
28/04/2016 Visibile a tutti uscita serale col Colonnello 30.61 653 02:05:36 14.62 Km\h Can sc 29
25/04/2016 Visibile a tutti Martesana Van Vlaander 114.82 966 08:16:51 13.87 Km\h Can sc 29
23/04/2016 Visibile a tutti inseguendo la pioggia 42.57 792 03:32:25 12.03 Km\h Can sc 29
22/04/2016 Visibile a tutti non male 11.76 83 00:56:12 12.55 Km\h pegasus
21/04/2016 Visibile a tutti sulle tracce di Perini 2 112.97 1973 04:57:09 22.81 Km\h Merida 901
20/04/2016 Visibile a tutti sulle tracce di...Perini 63.83 1269 02:48:05 22.79 Km\h Merida 901
20/04/2016 Visibile a tutti la mano di Flora 2 25.83 529 02:08:53 12.03 Km\h Can sc 29
18/04/2016 Visibile a tutti la mano di Flora 23.66 473 01:56:29 12.18 Km\h Can sc 29
17/04/2016 Visibile a tutti un giro...Felice 41.41 1084 03:34:01 11.61 Km\h Can sc 29
16/04/2016 Visibile a tutti fino a Luneto 70.49 1095 03:47:14 18.61 Km\h Merida 901
15/04/2016 Visibile a tutti buona uscita sui colli 18.9 596 02:27:24 7.69 Km\h pegasus
14/04/2016 Visibile a tutti Fra coste e vigneti(Cergallina-Vernasca) 50.25 1158 03:45:06 13.4 Km\h Can sc 29
12/04/2016 Visibile a tutti pedalando con Paolo 114.76 1511 04:50:51 23.67 Km\h Merida 901
11/04/2016 Visibile a tutti il tagliando del camper 65.32 763 03:53:29 16.79 Km\h Can sc 29
10/04/2016 Visibile a tutti corso autoformazione CAI 19.09 449 03:03:07 6.26 Km\h scott genius lt 30
09/04/2016 Visibile a tutti il giro di Pellegrino 52.59 599 02:44:13 19.22 Km\h Merida 901
07/04/2016 Visibile a tutti dietro S.Cristina_Rigollo 57 1382 04:20:51 13.11 Km\h Can sc 29
06/04/2016 Visibile a tutti in giro con Danilo 40.45 1023 03:28:41 11.63 Km\h Can sc 29
05/04/2016 Visibile a tutti prima uscita in bdc 62.37 1103 02:52:13 21.73 Km\h Merida 901
04/04/2016 Visibile a tutti riprendo a pedalare 43.06 986 03:24:10 12.66 Km\h Can sc 29
03/04/2016 Visibile a tutti al santuario di Careno 38.88 910 07:19:58 5.3 Km\h mizuno cascadia
02/04/2016 Visibile a tutti corsa di ripresa 9.4 69 00:48:40 11.58 Km\h pegasus
31/03/2016 Visibile a tutti all\'eremo di S.Colombano 14.38 328 02:53:31 4.97 Km\h salomon
30/03/2016 Visibile a tutti sentiero delle \"teragnole\" e sentiero \"Cesur\"a 29.84 818 06:40:39 4.47 Km\h salomon
29/03/2016 Visibile a tutti sulle orme di ...Grande Guerra e dinosauri 23.96 789 05:23:36 4.44 Km\h salomon
27/03/2016 Visibile a tutti Bardone-Passo Cisa 30.73 1479 07:22:32 4.17 Km\h salomon
26/03/2016 Visibile a tutti Salsomaggiore-Bardone 40.36 1008 07:26:55 5.42 Km\h salomon
24/03/2016 Visibile a tutti very soft 42.04 430 02:55:36 14.37 Km\h Merida one-five-zero
22/03/2016 Visibile a tutti sivizzano-contignaco-marzano 13.46 482 03:13:16 4.18 Km\h salomon
21/03/2016 Visibile a tutti monte Manulo 15.04 506 03:01:50 4.96 Km\h salomon
20/03/2016 Visibile a tutti al Santuario della Madonna della Corona 13.98 767 04:03:17 3.45 Km\h salomon
19/03/2016 Visibile a tutti per antichi forti 7.78 185 02:15:19 3.45 Km\h salomon
18/03/2016 Visibile a tutti Talita Kum 16.94 420 03:33:52 4.75 Km\h salomon
17/03/2016 Visibile a tutti prati, sentieri, castelli 16.45 471 03:55:00 4.2 Km\h salomon
15/03/2016 Visibile a tutti al castello di Contignaco 11.78 301 03:02:04 3.88 Km\h salomon
14/03/2016 Visibile a tutti via Crucis-parco Stirone 16.85 364 04:07:35 4.08 Km\h salomon
13/03/2016 Visibile a tutti riviano - val boccolo 14.54 412 03:19:05 4.38 Km\h salomon
12/03/2016 Visibile a tutti al santuario di Fontanellato 24.89 22 04:52:02 5.11 Km\h salomon
11/03/2016 Visibile a tutti San Rocchino 12.35 157 02:46:45 4.44 Km\h salomon
10/03/2016 Visibile a tutti Lucciola e Maghina 11.19 278 02:23:32 4.68 Km\h salomon
07/03/2016 Visibile a tutti per sentieri e carraie 11.69 415 02:53:31 4.04 Km\h salomon
06/03/2016 Visibile a tutti ancora la Lucciola 9.1 236 01:23:25 6.55 Km\h mizuno cascadia
05/03/2016 Visibile a tutti FW della ripresa 7.46 82 01:04:11 6.97 Km\h salomon
03/03/2016 Visibile a tutti giro finito male 28.47 751 02:34:00 11.09 Km\h Merida one-five-zero
02/03/2016 Visibile a tutti seguendo sentieri 49.18 1180 04:20:03 11.35 Km\h Merida one-five-zero
01/03/2016 Visibile a tutti finalmente il sole 9.46 74 00:44:28 12.77 Km\h pegasus
29/02/2016 Visibile a tutti serata umidiccia 11.79 76 01:00:06 11.77 Km\h pegasus
28/02/2016 Visibile a tutti domenica piovosa 9.43 75 00:46:30 12.17 Km\h pegasus
27/02/2016 Visibile a tutti alla facciaccia di Golia 46.74 1126 02:48:13 16.67 Km\h Specialzed FSR comp 2003
26/02/2016 Visibile a tutti prima di Golia 46.02 1095 03:23:54 13.54 Km\h Can sc 29
25/02/2016 Visibile a tutti al solito orario 11.72 85 00:56:19 12.48 Km\h pegasus
24/02/2016 Visibile a tutti discesa in Val Ceno 57.53 1482 04:15:08 13.53 Km\h Can sc 29
23/02/2016 Visibile a tutti fuori orario 9.47 85 00:44:42 12.71 Km\h pegasus
22/02/2016 Visibile a tutti corsetta serale 7.85 54 00:38:35 12.2 Km\h pegasus
20/02/2016 Visibile a tutti nonostante il fango 46.33 1104 03:40:58 12.58 Km\h Can sc 29
19/02/2016 Visibile a tutti colli borghigiani 34.06 641 02:32:04 13.44 Km\h Merida one-five-zero
18/02/2016 Visibile a tutti meno asfalto possibile 25.01 744 02:20:13 10.7 Km\h Merida one-five-zero
17/02/2016 Visibile a tutti con le ultime gocce di pioggia 12.6 101 00:56:39 13.34 Km\h pegasus
13/02/2016 Visibile a tutti neve a Rigollo 44.24 909 02:48:53 15.72 Km\h Can sc 29
12/02/2016 Visibile a tutti solito giro...a rovescio 9.13 92 00:42:31 12.89 Km\h pegasus
11/02/2016 Visibile a tutti breve ma divertente 24.07 575 02:10:16 11.09 Km\h scott genius lt 30
11/02/2016 Visibile a tutti camminata post operatoria 8.51 115 01:28:41 5.76 Km\h mizuno cascadia
10/02/2016 Visibile a tutti il solito giro 9.7 101 00:45:14 12.87 Km\h pegasus
09/02/2016 Visibile a tutti FW della Lucciola 9.04 223 01:18:02 6.95 Km\h mizuno cascadia
08/02/2016 Visibile a tutti dopo la pioggia 63.18 1145 04:07:17 15.33 Km\h Can sc 29
06/02/2016 Visibile a tutti nuovo sentiero in Val Dordia 48.51 1030 03:13:15 15.06 Km\h Can sc 29
05/02/2016 Visibile a tutti solita corsetta_1 9.91 98 00:44:04 13.5 Km\h pegasus
04/02/2016 Visibile a tutti bella pedalata 72.27 1657 05:22:27 13.45 Km\h Can sc 29
03/02/2016 Visibile a tutti Fat fatiche 33.55 950 03:42:10 9.06 Km\h Mad Fat
02/02/2016 Visibile a tutti la nebbia agli irti colli 45.15 1239 04:11:37 10.77 Km\h Merida one-five-zero
31/01/2016 Visibile a tutti su e giù da Vigoleno...in buona compagnia 34.74 735 03:07:08 11.14 Km\h Merida one-five-zero
30/01/2016 Visibile a tutti umidità al kanate 39.66 928 03:15:28 12.17 Km\h Can sc 29
29/01/2016 Visibile a tutti solita corsetta 9.41 76 00:45:05 12.52 Km\h pegasus
28/01/2016 Visibile a tutti un giro così... 62.61 1285 04:30:50 13.87 Km\h Can sc 29
27/01/2016 Visibile a tutti poi si è spento 3.17 39 00:14:00 13.57 Km\h pegasus
26/01/2016 Visibile a tutti fango, fatica e ruota frenata 49.62 1102 04:08:20 11.99 Km\h Can sc 29
25/01/2016 Visibile a tutti montemanulo arzigogolato 41.7 1141 03:36:33 11.55 Km\h Can sc 29
24/01/2016 Visibile a tutti Grande Guerra Trek: le trincee del Nagià Grom 11.54 796 04:24:09 2.62 Km\h scarponi
23/01/2016 Visibile a tutti abbiamo cinghialeggiato solo un pò 45.74 1355 03:41:00 12.42 Km\h Can sc 29
23/01/2016 Visibile a tutti lucciola particolare 6.17 193 01:14:17 4.99 Km\h salomon
22/01/2016 Visibile a tutti cercando nuovi sentieri 17.41 623 03:13:29 5.4 Km\h salomon
21/01/2016 Visibile a tutti in cerca di neve (con la grassa) 32.92 1153 03:50:19 8.58 Km\h Mad Fat
20/01/2016 Visibile a tutti satelliti strani 12.13 109 00:32:42 22.25 Km\h pegasus
19/01/2016 Visibile a tutti dalla Predella a Cergallina 68.19 1635 05:24:00 12.63 Km\h Can sc 29
18/01/2016 Visibile a tutti camminata sui colli... 18.01 508 03:18:29 5.44 Km\h salomon
17/01/2016 Visibile a tutti Diofebo, Bertolucci, Verdi, Guareschi 57.61 54 03:56:15 14.63 Km\h Can sc 29
16/01/2016 Visibile a tutti Mad Fat Group 23.65 510 02:33:41 9.23 Km\h Mad Fat
15/01/2016 Visibile a tutti a pestar la neve 36.2 799 03:41:40 9.8 Km\h scott genius lt 30
13/01/2016 Visibile a tutti tentativo fallito 11.01 148 00:41:38 15.87 Km\h Can sc 29
12/01/2016 Visibile a tutti il sole di Lusignani 57.15 1254 03:48:10 15.03 Km\h Can sc 29
11/01/2016 Visibile a tutti satelliti pazzi 10.17 111 00:45:39 13.37 Km\h pegasus
10/01/2016 Visibile a tutti domenica pedalatoria 36.08 801 03:29:19 10.34 Km\h Merida one-five-zero
09/01/2016 Visibile a tutti sabato bagnato 49.77 819 03:02:43 16.34 Km\h Can sc 29
08/01/2016 Visibile a tutti cinghialando in collina 19.32 538 03:50:40 5.03 Km\h salomon
07/01/2016 Visibile a tutti fat e fango 35.36 995 03:43:14 9.5 Km\h Mad Fat
06/01/2016 Visibile a tutti giro della befana 36.24 849 03:10:56 11.39 Km\h Merida one-five-zero
05/01/2016 Visibile a tutti camminata uggiiosa 15.91 509 02:44:35 5.8 Km\h salomon
04/01/2016 Visibile a tutti quelli che...il sabato mattino 48.53 971 03:06:30 15.61 Km\h Can sc 29
03/01/2016 Visibile a tutti con la prima neve 39.29 543 02:54:24 13.52 Km\h Merida one-five-zero
02/01/2016 Visibile a tutti corsa un pò così 7.09 70 00:34:39 12.28 Km\h pegasus
01/01/2016 Visibile a tutti giro della pasqualina 35.26 803 02:55:39 12.05 Km\h Merida one-five-zero
31/12/2015 Visibile a tutti il giro dell\'ultimo 33.32 736 02:29:10 13.4 Km\h Can sc 29
30/12/2015 Visibile a tutti corsa di verifica 10.4 110 00:51:46 12.05 Km\h pegasus
29/12/2015 Visibile a tutti di Fat in meglio 41.95 1140 04:06:31 10.21 Km\h Mad Fat
28/12/2015 Visibile a tutti rigollo diverso 53.87 1347 04:07:27 13.06 Km\h Can sc 29
26/12/2015 Visibile a tutti ancora montemarcello 24.88 770 03:46:59 6.58 Km\h scott genius lt 30
23/12/2015 Visibile a tutti pulizia sentieri e collegamento interessante 6.49 147 00:51:00 7.64 Km\h scott genius lt 30
20/12/2015 Visibile a tutti allenamento al mal di pancia 14.44 404 02:51:07 5.06 Km\h salomon
17/12/2015 Visibile a tutti su e giù per i colli con Paolo 65.95 1268 03:57:58 16.63 Km\h Can sc 29
16/12/2015 Visibile a tutti mezzogiorno di...corsa 11.9 90 00:55:53 12.78 Km\h pegasus
15/12/2015 Visibile a tutti solito giro con varianti 57.17 1354 04:15:59 13.4 Km\h Can sc 29
14/12/2015 Visibile a tutti fuori orario 12.18 149 00:56:03 13.03 Km\h pegasus
13/12/2015 Visibile a tutti forti in fat 34.78 914 03:59:48 8.7 Km\h scott genius lt 30
11/12/2015 Visibile a tutti cambio gomme 8.06 60 01:32:17 5.24 Km\h mizuno cascadia
10/12/2015 Visibile a tutti barigazzo OhYeah 32.33 1377 04:05:22 7.91 Km\h scott genius lt 30
09/12/2015 Visibile a tutti lucciola di corsa 9.01 217 00:44:42 12.1 Km\h pegasus
08/12/2015 Visibile a tutti il sole dell\'immacolata 42.58 983 03:43:46 11.42 Km\h Can sc 29
07/12/2015 Visibile a tutti escursione interessante 52.77 1223 03:54:40 13.49 Km\h Can sc 29
06/12/2015 Visibile a tutti alla bassa 53.79 45 03:22:59 15.9 Km\h Can sc 29
05/12/2015 Visibile a tutti sabato di nebbia e amici 56.62 1264 03:58:18 14.26 Km\h Can sc 29
04/12/2015 Visibile a tutti camminata di rientro 11.89 136 01:49:25 6.52 Km\h mizuno cascadia
03/12/2015 Visibile a tutti ravanando un pò 56.53 1283 04:13:33 13.38 Km\h Can sc 29
01/12/2015 Visibile a tutti bella camminata 16.49 595 02:44:18 6.02 Km\h salomon
30/11/2015 Visibile a tutti attorno al Kanate 44.36 947 04:07:20 10.76 Km\h scott genius lt 30
29/11/2015 Visibile a tutti cinghialata domenicale 41.3 1010 03:03:09 13.53 Km\h Can sc 29
27/11/2015 Visibile a tutti allenamento tosto 59.81 1659 04:11:23 14.28 Km\h Can sc 29
26/11/2015 Visibile a tutti Rigollo standard 48.8 1162 03:55:28 12.44 Km\h Can sc 29
25/11/2015 Visibile a tutti corsa tranquilla ma efficace 11.93 110 00:52:32 13.62 Km\h pegasus
24/11/2015 Visibile a tutti sole basso 56.28 1338 04:00:14 14.06 Km\h Can sc 29
22/11/2015 Visibile a tutti bello e freddo 39.6 769 03:24:03 11.64 Km\h Can sc 29
21/11/2015 Visibile a tutti il sole di Rigollo 57.57 1405 03:53:53 14.77 Km\h Can sc 29
19/11/2015 Visibile a tutti nebbia su nebbia 53.25 1416 04:22:33 12.17 Km\h Can sc 29
18/11/2015 Visibile a tutti camminata tra nebbia e sole 14.74 429 02:23:47 6.15 Km\h mizuno cascadia
17/11/2015 Visibile a tutti kanate canale nord 38.49 1049 03:58:50 9.67 Km\h scott genius lt 30
16/11/2015 Visibile a tutti santa Cristina calassic 49.43 1378 04:17:11 11.53 Km\h Can sc 29
16/11/2015 Visibile a tutti serale con Flora 4.55 39 00:29:36 9.23 Km\h pegasus
14/11/2015 Visibile a tutti Kanate Ruttok 26.57 700 02:46:25 9.58 Km\h scott genius lt 30
12/11/2015 Visibile a tutti l\'anello della Marialonga 57.9 1357 04:50:07 11.97 Km\h Can sc 29
11/11/2015 Visibile a tutti solita corsetta 9.3 65 00:45:01 12.39 Km\h pegasus
10/11/2015 Visibile a tutti sulle orme del Colonnello 45.16 1456 04:31:46 9.97 Km\h Can sc 29
09/11/2015 Visibile a tutti mezzo e mezzo 68.17 1169 04:37:26 14.74 Km\h Can sc 29
07/11/2015 Visibile a tutti tremalzo classic 41.97 1440 04:36:22 9.11 Km\h Can sc 29
06/11/2015 Visibile a tutti lucciola 8.88 211 01:07:57 7.84 Km\h pegasus
05/11/2015 Visibile a tutti avanti e indietro per i colli 61.12 1183 03:44:10 16.36 Km\h Can sc 29
04/11/2015 Visibile a tutti corsa di mezzogiorno 9.46 87 00:45:25 12.5 Km\h pegasus
03/11/2015 Visibile a tutti Pellizzone rovescio e allargato 128.42 1479 05:27:25 23.53 Km\h Merida 901
02/11/2015 Visibile a tutti serale tribolata 21.01 541 02:10:22 9.67 Km\h Merida one-five-zero
02/11/2015 Visibile a tutti per respirare un pò 16.31 481 01:59:52 8.17 Km\h salomon
01/11/2015 Visibile a tutti piuttosto di nienete 27.37 561 01:58:37 13.85 Km\h Can sc 29
28/10/2015 Visibile a tutti giornata uggiosa 9.37 71 00:45:18 12.41 Km\h pegasus
27/10/2015 Visibile a tutti la via del Colonnello 45.44 1335 04:23:33 10.35 Km\h scott genius lt 30
26/10/2015 Visibile a tutti tutta di notte 28.92 398 02:41:07 10.77 Km\h Merida one-five-zero
25/10/2015 Visibile a tutti Grande Guerra mtb: il Corno della Paura 35.68 1112 03:37:42 9.83 Km\h Can sc 29
24/10/2015 Visibile a tutti cinghialata con gusto 46.41 1268 03:51:00 12.05 Km\h Can sc 29
23/10/2015 Visibile a tutti escursione serale 33.06 875 03:14:11 10.22 Km\h Merida one-five-zero
22/10/2015 Visibile a tutti il Pellizzone da Bardi 103.96 1730 04:45:24 21.86 Km\h Merida 901
21/10/2015 Visibile a tutti un pò di corsa 5.46 38 00:40:45 8.03 Km\h pegasus
20/10/2015 Visibile a tutti lunga pedalata 74.78 1809 05:03:33 14.78 Km\h Can sc 29
19/10/2015 Visibile a tutti corsa di fretta 6.97 47 00:33:23 12.53 Km\h pegasus
18/10/2015 Visibile a tutti Corso mtb CAI per bambini 7 209 01:24:29 4.97 Km\h Merida one-five-zero
17/10/2015 Visibile a tutti Grande Guerra mtb: sul monte Creino 43.25 1489 04:58:25 8.69 Km\h Can sc 29
16/10/2015 Visibile a tutti corsa lenta 9.36 68 00:47:59 11.71 Km\h pegasus
15/10/2015 Visibile a tutti i miei 9 colli 97.77 1597 04:26:06 22.04 Km\h Merida 901
14/10/2015 Visibile a tutti bastoncini infangati 11.25 344 01:51:07 6.07 Km\h mizuno cascadia
13/10/2015 Visibile a tutti con i bastoncini 8.96 157 01:29:38 6 Km\h mizuno cascadia
11/10/2015 Visibile a tutti Tremalzo a rovescio 38.75 1361 04:25:14 8.77 Km\h Can sc 29
10/10/2015 Visibile a tutti Esc CAI Fidenza mtb- S.Donnino 39.4 417 03:20:17 11.8 Km\h Can sc 29
09/10/2015 Visibile a tutti per fango ad ogni costo 44.12 993 04:19:47 10.19 Km\h Can sc 29
08/10/2015 Visibile a tutti dopo la manutenzione 32.83 562 03:24:27 9.63 Km\h Merida one-five-zero
07/10/2015 Visibile a tutti il giro di Rigollo dopo la pioggia 48.69 1225 04:27:50 10.91 Km\h Merida one-five-zero
05/10/2015 Visibile a tutti uscita nuvolosa 39.37 542 03:08:15 12.55 Km\h Merida one-five-zero
04/10/2015 Visibile a tutti corsetta domenicale 6.98 50 00:32:18 12.96 Km\h pegasus
03/10/2015 Visibile a tutti opzione B san Donnino 34.03 477 02:48:43 12.1 Km\h Merida one-five-zero
03/10/2015 Visibile a tutti corso Bambini CAI Parma ai boschi di Carrega 11.2 150 01:33:48 7.16 Km\h Merida one-five-zero
02/10/2015 Visibile a tutti FW bagnato 11.79 78 01:47:27 6.59 Km\h mizuno cascadia
01/10/2015 Visibile a tutti prima corsetta d\'autunno 6.99 45 00:32:49 12.78 Km\h pegasus
29/09/2015 Visibile a tutti passo Bordala 31.02 1171 03:51:42 8.03 Km\h Can sc 29
28/09/2015 Visibile a tutti un altro pezzo di 100km dei forti 30.13 896 03:26:27 8.76 Km\h Can sc 29
27/09/2015 Visibile a tutti monte maggio CAI 33.3 993 03:25:07 9.74 Km\h Can sc 29
26/09/2015 Visibile a tutti mtb cai parma: corso bimbi 15.93 100 01:17:15 12.37 Km\h Can sc 29
25/09/2015 Visibile a tutti S.Donnino in Fat 41.04 445 03:11:28 12.86 Km\h Merida one-five-zero
24/09/2015 Visibile a tutti senza chiavi 13.82 170 00:57:05 14.53 Km\h Can sc 29
23/09/2015 Visibile a tutti virus da Fat? 25.46 582 02:29:51 10.19 Km\h Merida one-five-zero
22/09/2015 Visibile a tutti assaggiatori di terriccio 51.53 1558 03:54:55 13.16 Km\h Can sc 29
20/09/2015 Visibile a tutti MAM2K15:la gara 11.05 393 01:30:05 7.36 Km\h scott genius lt 30
19/09/2015 Visibile a tutti MAM2K15:sistemazione e prova percorso 15.64 659 02:53:36 5.4 Km\h scott genius lt 30
17/09/2015 Visibile a tutti per provare il nuovo garmin 41.96 906 02:44:20 15.32 Km\h Can sc 29
16/09/2015 Visibile a tutti Flora e la Fat 33.06 432 03:05:33 10.69 Km\h Merida one-five-zero
15/09/2015 Visibile a tutti camminata nella bassa 9.15 35 02:00:34 4.56 Km\h mizuno cascadia
15/09/2015 Visibile a tutti Settesorelle 95.55 1125 04:14:41 22.51 Km\h Merida 901
14/09/2015 Visibile a tutti subito dopo il temporale 49.36 1148 03:36:34 13.67 Km\h Merida one-five-zero
12/09/2015 Visibile a tutti corsetta con Flora 5.46 41 00:35:17 9.28 Km\h pegasus
12/09/2015 Visibile a tutti CAI Parma mtb- corso bimbi 17.89 100 01:56:08 9.24 Km\h Merida one-five-zero
10/09/2015 Visibile a tutti avanti e indietro 16.01 520 03:18:19 4.85 Km\h salomon
09/09/2015 Visibile a tutti specchio 87.56 1673 04:09:56 21.02 Km\h Merida 901
08/09/2015 Visibile a tutti zigozago 52.12 1478 04:29:08 11.62 Km\h Can sc 29
06/09/2015 Visibile a tutti tutti al mare!! 139.79 2050 07:52:07 17.77 Km\h Merida 901
04/09/2015 Visibile a tutti che fatica! 9.27 75 00:46:40 11.92 Km\h pegasus
03/09/2015 Visibile a tutti pedalando fra i calanchi 53.29 1270 04:20:12 12.29 Km\h Can sc 29
02/09/2015 Visibile a tutti di colle in colle 51.32 1119 03:44:25 13.72 Km\h Can sc 29
01/09/2015 Visibile a tutti Parco Provinciale da Lugagnano 102.61 1971 04:48:03 21.37 Km\h Merida 901
01/09/2015 Visibile a tutti corsetta serale 3.6 31 00:23:16 9.29 Km\h pegasus
31/08/2015 Visibile a tutti camminata...calda 13.34 406 02:16:42 5.85 Km\h salomon
30/08/2015 Visibile a tutti monte Caplone 31.2 1562 04:12:38 7.41 Km\h scott genius lt 30
29/08/2015 Visibile a tutti compagnia eterogenea 52.03 1363 04:02:18 12.88 Km\h Can sc 29
27/08/2015 Visibile a tutti al Parco Provinciale del Monte Moria 100.7 1835 04:45:39 21.15 Km\h Merida 901
26/08/2015 Visibile a tutti Con Daniele a Vigoleno e Vernasca 46.93 1092 03:33:33 13.18 Km\h Can sc 29
25/08/2015 Visibile a tutti su e giù per i colli 62.27 1182 02:59:43 20.79 Km\h Merida 901
24/08/2015 Visibile a tutti sui colli di Tabiano 16.27 440 01:37:16 10.04 Km\h pegasus
23/08/2015 Visibile a tutti FW della domenica 11.88 79 01:40:44 7.08 Km\h mizuno cascadia
22/08/2015 Visibile a tutti monte Maggio rivisto e corretto 34.9 1147 04:31:05 7.72 Km\h Can sc 29
21/08/2015 Visibile a tutti con Luca in bdc 55.03 548 02:22:18 23.2 Km\h Merida 901
20/08/2015 Visibile a tutti cinghiali e pratoni 44.12 950 03:59:35 11.05 Km\h Can sc 29
20/08/2015 Visibile a tutti Flora e il giro di Pellegrino 46.01 563 02:30:20 18.36 Km\h Merida 901
19/08/2015 Visibile a tutti sole, nuvole e H2O 50.98 609 02:02:51 24.9 Km\h Merida 901
19/08/2015 Visibile a tutti FW del dopo ferie 6.65 44 01:03:11 6.31 Km\h mizuno cascadia
18/08/2015 Visibile a tutti ri...corsa 9.68 118 00:44:04 13.18 Km\h pegasus
17/08/2015 Visibile a tutti ritorno sui colli 43.48 1127 03:48:16 11.43 Km\h Can sc 29
14/08/2015 Visibile a tutti Longiarù:appuntamento con la pioggia 44.63 1230 05:11:43 8.59 Km\h Can sc 29
13/08/2015 Visibile a tutti anello dei Settsass 11.43 674 04:01:42 2.84 Km\h salomon
11/08/2015 Visibile a tutti tour della Grande Guerra: Fedaja-Campeggio 40.69 1646 05:11:07 7.85 Km\h Can sc 29
10/08/2015 Visibile a tutti Tour Grande Guerra: Campeggio passo Fedaja 50.47 2324 07:13:37 6.98 Km\h Can sc 29
07/08/2015 Visibile a tutti Monte Castello 34.52 1643 06:57:08 4.97 Km\h scarponi
06/08/2015 Visibile a tutti Averau 12.4 658 04:16:12 2.9 Km\h scarponi
05/08/2015 Visibile a tutti la crusc 46.3 1263 05:21:03 8.65 Km\h Can sc 29
04/08/2015 Visibile a tutti fuori e dentro il sasso di Stria 8.49 604 03:04:10 2.77 Km\h scarponi
03/08/2015 Visibile a tutti attorno alle Tofane 43.88 1612 05:51:25 7.49 Km\h Can sc 29
01/08/2015 Visibile a tutti il giro dei Pralongià 16.94 575 04:33:30 3.72 Km\h salomon
31/07/2015 Visibile a tutti un falzarego serale 17.03 628 02:18:44 7.37 Km\h Can sc 29
30/07/2015 Visibile a tutti monte cavallo-ridanna 14.81 346 04:44:44 3.12 Km\h salomon
28/07/2015 Visibile a tutti il raggio di Flora 38.74 1269 04:34:03 8.48 Km\h Can sc 29
27/07/2015 Visibile a tutti mezzo dolomieu 17.28 353 04:52:50 3.54 Km\h scarponi
26/07/2015 Visibile a tutti alle cascate di Stanghe 8.46 244 02:06:20 4.02 Km\h mizuno cascadia
26/07/2015 Visibile a tutti sulle strade dei minatori 10.67 22 02:26:36 4.37 Km\h mizuno cascadia
23/07/2015 Visibile a tutti sulla griglia a Monte Manulo 44.75 944 03:17:25 13.6 Km\h Can sc 29
22/07/2015 Visibile a tutti per provare il blocco pignoni 95.5 1555 04:19:24 22.09 Km\h Merida 901
21/07/2015 Visibile a tutti sul kanate con Antonio 39.91 1067 03:35:22 11.12 Km\h Can sc 29
20/07/2015 Visibile a tutti verso la boscarella 15.45 326 02:36:53 5.91 Km\h mizuno cascadia
19/07/2015 Visibile a tutti al passo dei 2 santi 43.85 1339 04:59:35 8.78 Km\h scott genius lt 30
18/07/2015 Visibile a tutti uscita con cognizione 48.05 1193 03:44:21 12.85 Km\h Can sc 29
16/07/2015 Visibile a tutti pedalata anarchica 58.54 1399 04:26:08 13.2 Km\h Can sc 29
15/07/2015 Visibile a tutti a caccia di ombre 17.86 547 02:55:24 6.11 Km\h mizuno cascadia
13/07/2015 Visibile a tutti un bel giro 95.05 1195 03:46:03 25.23 Km\h Merida 901
12/07/2015 Visibile a tutti un giro sulle \"Terre Alte\" 25.78 985 03:44:52 6.88 Km\h scott genius lt 30
09/07/2015 Visibile a tutti pedalata influenzata 50.93 1419 05:12:47 9.77 Km\h scott genius lt 30
07/07/2015 Visibile a tutti aria bollente 97.77 1723 04:25:01 22.14 Km\h Merida 901
05/07/2015 Visibile a tutti da Vernasca con furore 59.43 1302 06:09:10 9.66 Km\h Can sc 29
04/07/2015 Visibile a tutti sabato solitario...ma produttivo 44.12 1268 04:14:05 10.42 Km\h Can sc 29
03/07/2015 Visibile a tutti prima che faccia troppo caldo 13.21 288 02:03:20 6.43 Km\h mizuno cascadia
02/07/2015 Visibile a tutti S.Cristina con sofferenza 46.56 1401 04:24:19 10.57 Km\h Can sc 29
01/07/2015 Visibile a tutti lucciola rovente 8.86 201 00:42:46 12.43 Km\h pegasus
30/06/2015 Visibile a tutti un giro a Morfasso 114.86 1932 05:22:31 21.37 Km\h Merida 901
28/06/2015 Visibile a tutti il Pellizzone di Flora 102.05 1657 06:01:44 16.93 Km\h Merida 901
27/06/2015 Visibile a tutti escursione in compagnia 47.55 1298 04:01:15 11.83 Km\h Can sc 29
26/06/2015 Visibile a tutti Tagliando per i colli 15.92 551 02:45:47 5.76 Km\h mizuno cascadia
26/06/2015 Visibile a tutti il giro di Pellegrino 49.5 599 02:48:21 17.64 Km\h Merida 901
25/06/2015 Visibile a tutti Pensionatamonte: in giro col campione 40.22 1383 03:45:41 10.69 Km\h Can sc 29
24/06/2015 Visibile a tutti predella Tabiano 15.6 470 02:12:03 7.09 Km\h pegasus
23/06/2015 Visibile a tutti Cassio 120.83 1842 05:20:38 22.61 Km\h Merida 901
21/06/2015 Visibile a tutti Vetriolo 36.27 1307 04:06:51 8.82 Km\h scott genius lt 30
20/06/2015 Visibile a tutti Grande Guerra mtb: strada della Fricca e Kaiserjagerstrasse 46.45 1152 05:11:54 8.93 Km\h scott genius lt 30
19/06/2015 Visibile a tutti Grande Guerra Trek: osservatorio mnte Rust e comando austriaco di Virti 12.84 311 03:15:22 3.94 Km\h salomon
18/06/2015 Visibile a tutti 60 km nei forti 58.86 1406 06:37:30 8.89 Km\h scott genius lt 30
17/06/2015 Visibile a tutti Grande Guerra Trek: forte Belvedere 10.39 227 02:16:06 4.58 Km\h salomon
15/06/2015 Visibile a tutti giro veloce sui colli 32.13 484 01:22:06 23.48 Km\h Merida 901
15/06/2015 Visibile a tutti corsetta improvviasata 12.19 119 00:55:55 13.08 Km\h pegasus
14/06/2015 Visibile a tutti escursione CAI Fidenza mtb: Pellegrino e la MIlanese 37.33 907 03:35:11 10.41 Km\h scott genius lt 30
11/06/2015 Visibile a tutti prova nuovi sentieri 57.65 1423 04:37:08 12.48 Km\h scott genius lt 30
10/06/2015 Visibile a tutti allenamento fra i castelli del sale 16.93 371 02:04:05 8.19 Km\h mizuno cascadia
09/06/2015 Visibile a tutti giro del Pellizzone, rovescio e largo 134.91 1643 05:44:43 23.48 Km\h Merida 901
08/06/2015 Visibile a tutti trail della via Crucis 16 401 02:06:18 7.6 Km\h salomon
07/06/2015 Visibile a tutti Escurione corso CAI parma mtb:orientamento 31.05 865 03:45:30 8.26 Km\h scott genius lt 30
06/06/2015 Visibile a tutti escursione incompleta 61.44 1409 04:46:55 12.85 Km\h Can sc 29
05/06/2015 Visibile a tutti nel caldo del mattino 14.34 405 01:49:32 7.85 Km\h salomon
05/06/2015 Visibile a tutti In Stirone fra rovi e ortiche 27.07 332 02:29:32 10.86 Km\h Can sc 29
03/06/2015 Visibile a tutti il giro del Pellizzone 101.86 1648 04:20:07 23.5 Km\h Merida 901
02/06/2015 Visibile a tutti 4 passi sul monte Lama 10.97 597 02:22:30 4.62 Km\h salomon
31/05/2015 Visibile a tutti controllo orienteering 30.37 846 03:26:15 8.83 Km\h Can sc 29
30/05/2015 Visibile a tutti giro a Rovescio 57.58 1337 04:39:10 12.38 Km\h Can sc 29
28/05/2015 Visibile a tutti prova di escursione 36.17 943 03:27:47 10.44 Km\h Can sc 29
27/05/2015 Visibile a tutti Escursione davvero tosta 64.52 1929 05:16:23 12.24 Km\h Can sc 29
25/05/2015 Visibile a tutti Grande Guerra Run: Cima Oro 16.14 1045 03:18:35 4.88 Km\h salomon
24/05/2015 Visibile a tutti Escursione CAI Parma mtb: Pieve Ledro-bocca fortini-passo nota-bocca larici-riva 50.32 1545 06:05:53 8.25 Km\h scott genius lt 30
23/05/2015 Visibile a tutti escursione CAI Parma mtb: riva del garda-pieve di ledro 32.19 686 02:52:10 11.22 Km\h scott genius lt 30
20/05/2015 Visibile a tutti successione di strappi 37.81 941 03:09:07 12 Km\h Can sc 29
19/05/2015 Visibile a tutti s cristina e azzali 53.34 1465 04:32:57 11.73 Km\h Can sc 29
18/05/2015 Visibile a tutti corsetta defaticante 9.25 0 00:47:31 11.68 Km\h pegasus
17/05/2015 Visibile a tutti escursione Cai parma mtb: giro del Succiso 48.71 1711 07:54:06 6.16 Km\h scott genius lt 30
15/05/2015 Visibile a tutti corsetta 1 9.66 100 00:45:34 12.72 Km\h pegasus
14/05/2015 Visibile a tutti tra ricordi e tecnica di guida 38.51 1121 03:31:01 10.95 Km\h Can sc 29
13/05/2015 Visibile a tutti camminando sui colli 21.05 454 03:20:07 6.31 Km\h mizuno cascadia
12/05/2015 Visibile a tutti canalone e purgatorio 40.18 1153 03:36:58 11.11 Km\h scott genius lt 30
10/05/2015 Visibile a tutti Milanese trail 21.34 731 03:23:25 6.29 Km\h salomon
09/05/2015 Visibile a tutti Val d\'arda e molto altro 70.35 1727 05:23:13 13.06 Km\h Can sc 29
08/05/2015 Visibile a tutti verso la bassa 42.03 53 02:00:14 20.97 Km\h Can sc 29
07/05/2015 Visibile a tutti risalendo il taro 65.06 746 04:02:40 16.09 Km\h Can sc 29
06/05/2015 Visibile a tutti camminata di prima mattina 4.5 160 00:44:45 6.04 Km\h mizuno cascadia
05/05/2015 Visibile a tutti nella tana di Marco Aurelio 66.74 1605 04:45:00 14.05 Km\h Can sc 29
04/05/2015 Visibile a tutti camminata con Paolo 16.86 496 02:30:00 6.74 Km\h mizuno cascadia
03/05/2015 Visibile a tutti pedalata sui colli 23.04 503 02:08:15 10.78 Km\h Can sc 29
02/05/2015 Visibile a tutti escursione Cai Fidenza mtb 36.17 921 03:26:07 10.53 Km\h scott genius lt 30
01/05/2015 Visibile a tutti giro del kanate 13.94 501 01:50:20 7.58 Km\h salomon
30/04/2015 Visibile a tutti controllo sentieri 34.44 999 03:40:40 9.37 Km\h scott genius lt 30
29/04/2015 Visibile a tutti nella nebbia...come alla bassa 72.03 1562 04:25:07 16.3 Km\h Can sc 29
28/04/2015 Visibile a tutti la Petrolifera 11.5 304 00:58:51 11.73 Km\h pegasus
26/04/2015 Visibile a tutti trail Pietra Corva 15.51 521 02:25:13 6.41 Km\h salomon
25/04/2015 Visibile a tutti kanate Flo 29.21 878 03:18:25 8.83 Km\h scott genius lt 30
24/04/2015 Visibile a tutti sgambata serale con Flora 5.52 188 00:39:56 8.29 Km\h pegasus
23/04/2015 Visibile a tutti vecchi sentieri mal messi 36.68 1124 04:16:15 8.59 Km\h Merida one-five-zero
22/04/2015 Visibile a tutti prove di trail running 10.02 257 00:51:58 11.57 Km\h salomon
21/04/2015 Visibile a tutti ritorno alla Silva 52.77 1490 04:38:22 11.37 Km\h Can sc 29
19/04/2015 Visibile a tutti corso CAI monte fuso: esercizi di tecnica 14.16 558 02:19:41 6.08 Km\h scott genius lt 30
18/04/2015 Visibile a tutti ancora sul S.Cristina e....altro 56.18 1495 04:31:48 12.4 Km\h Can sc 29
16/04/2015 Visibile a tutti sopra la MIlanesa 54.64 1535 04:54:37 11.13 Km\h Can sc 29
14/04/2015 Visibile a tutti il primo s.cristina dell\'anno 43.92 1304 03:47:04 11.61 Km\h Can sc 29
13/04/2015 Visibile a tutti FW riassuntivo 5.26 0 00:57:09 5.52 Km\h mizuno cascadia
13/04/2015 Visibile a tutti corsetta 9.37 0 00:44:24 12.66 Km\h pegasus
12/04/2015 Visibile a tutti kanate per 5 31.64 915 03:01:31 10.46 Km\h Can sc 29
11/04/2015 Visibile a tutti ritorno in Val Dordia 57.27 1367 04:37:38 12.38 Km\h Can sc 29
10/04/2015 Visibile a tutti FW fartlek 4.55 0 01:00:26 4.52 Km\h mizuno cascadia
09/04/2015 Visibile a tutti un bel kanate 36.16 1147 03:27:50 10.44 Km\h scott genius lt 30
08/04/2015 Visibile a tutti allenamento nella primavera 11.77 80 00:54:45 12.9 Km\h pegasus
07/04/2015 Visibile a tutti FW lento 3.6 0 00:48:05 4.49 Km\h Specialzed FSR comp 2003
07/04/2015 Visibile a tutti Escursione in compagnia 46.94 1260 03:21:45 13.96 Km\h Can sc 29
05/04/2015 Visibile a tutti per antiche strade militari 28.88 899 03:12:42 8.99 Km\h Can sc 29
03/04/2015 Visibile a tutti Grande Guerra mtb: Kaiderjagerstrasse-Sentiero della Pace 38.83 1080 04:52:23 7.97 Km\h Can sc 29
02/04/2015 Visibile a tutti Monte Cimon di Valsugana 17.13 1176 05:38:40 3.04 Km\h scarponi
01/04/2015 Visibile a tutti Grande Guerra mtb: sulle tracce delle grandi battaglie 77.76 251 04:55:58 15.76 Km\h Can sc 29
31/03/2015 Visibile a tutti Grande Guerra mtb: forte delle Benne forte Tenna 25.28 559 02:57:03 8.57 Km\h Can sc 29
27/03/2015 Visibile a tutti per non perdere il vizio 37.91 865 03:28:28 10.91 Km\h Merida one-five-zero
27/03/2015 Visibile a tutti FW in compagnia 5.74 0 01:04:21 5.35 Km\h mizuno cascadia
26/03/2015 Visibile a tutti quando va male...che sia così 9.38 76 00:42:57 13.1 Km\h pegasus
24/03/2015 Visibile a tutti FW cross della lucciola 8.91 225 01:15:03 7.13 Km\h mizuno cascadia
23/03/2015 Visibile a tutti sulle tracce dei partigiani 75.31 1559 05:00:00 15.06 Km\h Can sc 29
21/03/2015 Visibile a tutti prove di gara 43.29 1120 03:46:48 11.45 Km\h Can sc 29
20/03/2015 Visibile a tutti FW a S.Rocchino 11.99 141 01:43:33 6.95 Km\h mizuno cascadia
19/03/2015 Visibile a tutti Val Dordia 69.62 1621 05:11:21 13.42 Km\h Can sc 29
19/03/2015 Visibile a tutti FW dopo la mtb 7 0 01:02:25 6.73 Km\h mizuno cascadia
18/03/2015 Visibile a tutti Lucciola a rovescio 8.98 224 01:17:46 6.92 Km\h mizuno cascadia
17/03/2015 Visibile a tutti fw con rilevamenti falsi 12.05 0 01:15:41 9.55 Km\h mizuno cascadia
15/03/2015 Visibile a tutti FW matutino:Lucciola + giro del parco 10.71 295 01:31:21 7.03 Km\h mizuno cascadia
14/03/2015 Visibile a tutti escursione sfortunata 49.57 1255 03:54:06 12.7 Km\h Can sc 29
13/03/2015 Visibile a tutti corsetta inaspetatta 9.45 0 00:42:37 13.3 Km\h pegasus
12/03/2015 Visibile a tutti giretto tardivo ma allegro 30.82 926 02:51:20 10.79 Km\h scott genius lt 30
11/03/2015 Visibile a tutti Pensionatamonte trek: Aquilotto e Marmagna 8.04 830 02:48:50 2.86 Km\h scarponi
10/03/2015 Visibile a tutti uscita con Paolo 55.78 1614 04:46:23 11.69 Km\h Merida one-five-zero
08/03/2015 Visibile a tutti ritorno all\'antico 53.6 224 03:52:46 13.82 Km\h Can sc 29
07/03/2015 Visibile a tutti Montemarcello CAI 25.82 993 03:09:36 8.17 Km\h scott genius lt 30
06/03/2015 Visibile a tutti per mettermi alla prova 40.1 1074 03:01:30 13.26 Km\h Can sc 29
04/03/2015 Visibile a tutti Fw con prove di velocità 10.52 220 01:15:19 8.38 Km\h mizuno cascadia
03/03/2015 Visibile a tutti giro indolente 46.15 1256 03:59:40 11.55 Km\h Merida one-five-zero
01/03/2015 Visibile a tutti Grande Guerra Trek:la strada del Ponale 11.95 451 03:25:37 3.49 Km\h salomon
28/02/2015 Visibile a tutti divertente cinghialata 37.81 971 03:46:15 10.03 Km\h Can sc 29
27/02/2015 Visibile a tutti ciaspolata a Prato spilla 6.73 453 02:21:50 2.85 Km\h scarponi
26/02/2015 Visibile a tutti 4 amici al giovedì 51.18 1217 04:06:51 12.44 Km\h Merida one-five-zero
25/02/2015 Visibile a tutti la cresta di Pietra nera 5.97 294 01:29:06 4.02 Km\h scarponi
23/02/2015 Visibile a tutti con le corone nuove 52.67 1276 03:43:14 14.16 Km\h Can sc 29
21/02/2015 Visibile a tutti non mi resta che correre 9.35 91 00:44:14 12.69 Km\h pegasus
19/02/2015 Visibile a tutti montemarcello ispezione 22.94 882 03:27:13 6.64 Km\h scott genius lt 30
18/02/2015 Visibile a tutti per provare il pacco pignoni 46.87 997 03:29:09 13.45 Km\h Can sc 29
17/02/2015 Visibile a tutti mtv 79.47 327 04:16:54 18.56 Km\h Merida 901
16/02/2015 Visibile a tutti ho pasticciato con il gps 10.29 91 00:44:19 13.93 Km\h mizuno cascadia
14/02/2015 Visibile a tutti con il cambio che fa i capricci 47.38 849 03:23:42 13.95 Km\h Can sc 29
13/02/2015 Visibile a tutti FW altalenante 11.77 95 01:28:32 7.98 Km\h mizuno cascadia
12/02/2015 Visibile a tutti il giro del Pellizzone 100.21 1697 05:38:01 17.79 Km\h Can sc 29
11/02/2015 Visibile a tutti camminata fra ghiaccio e neve 9.27 83 01:25:15 6.52 Km\h salomon
10/02/2015 Visibile a tutti ciaspolando dietro casa 8.25 463 02:50:01 2.91 Km\h scarponi
09/02/2015 Visibile a tutti dopo la nevicata 49.79 1238 04:17:28 11.6 Km\h scott genius lt 30
02/02/2015 Visibile a tutti Marialonga sofferta 47.17 1098 03:53:24 12.13 Km\h Can sc 29
01/02/2015 Visibile a tutti Grande Guerra Trek: lungo le trincee da Mori al Naja Grom 12.78 612 04:17:43 2.97 Km\h scarponi
31/01/2015 Visibile a tutti una puntata nel piacentino 59.58 1042 04:12:59 14.13 Km\h Can sc 29
29/01/2015 Visibile a tutti FW tecnico 8.93 88 01:05:20 8.2 Km\h mizuno cascadia
28/01/2015 Visibile a tutti un paio d\'ore di sole 25.67 689 02:16:49 11.26 Km\h Merida one-five-zero
27/01/2015 Visibile a tutti più tecnica che velocità 9.48 96 01:09:38 8.17 Km\h mizuno cascadia
26/01/2015 Visibile a tutti nuovi sentieri, cinghiali vecchi 44.89 1194 04:08:48 10.82 Km\h Merida one-five-zero
24/01/2015 Visibile a tutti in val Cenedolo 55.57 1402 04:20:00 12.82 Km\h Can sc 29
23/01/2015 Visibile a tutti per provare la FAT bike 19.63 462 01:53:12 10.41 Km\h Merida 901
22/01/2015 Visibile a tutti pasticciando col gps 8.4 87 00:37:25 13.47 Km\h pegasus
20/01/2015 Visibile a tutti FW allegro 11.82 113 01:26:16 8.22 Km\h mizuno cascadia
19/01/2015 Visibile a tutti a procurar battaglia 62.14 1377 04:08:35 15 Km\h Can sc 29
18/01/2015 Visibile a tutti ripresa di contatto 36.16 649 03:31:42 10.25 Km\h Specialzed FSR comp 2003
15/01/2015 Visibile a tutti Grande Guerra Trek: caccia alle postazioni 6.74 249 02:03:16 3.28 Km\h scarponi
14/01/2015 Visibile a tutti Grande Guerra trek: ravanando fra i forti 18.73 751 04:58:41 3.76 Km\h scarponi
13/01/2015 Visibile a tutti Grande Guerra Trek: Dosso dei Morti 15.29 1059 04:39:04 3.29 Km\h scarponi
12/01/2015 Visibile a tutti Grande Guerra trek_Lardaro_dosso brullo 17.83 1355 05:39:56 3.15 Km\h scarponi
11/01/2015 Visibile a tutti Mavignola-Claemp-lago Ritort-mavignola 14.97 927 05:13:58 2.86 Km\h scarponi
08/01/2015 Visibile a tutti senza troppa fatica 11.68 103 00:55:11 12.7 Km\h pegasus
07/01/2015 Visibile a tutti sole malato 63.95 1839 04:14:07 15.1 Km\h Can sc 29
06/01/2015 Visibile a tutti L\'epifania la litga porta via 25.14 175 02:26:19 10.31 Km\h Merida one-five-zero
05/01/2015 Visibile a tutti Grande Guerra trek: Serrada e la forra del Lupo 10.67 668 03:33:14 3 Km\h scarponi
04/01/2015 Visibile a tutti tentativo fallito 19.7 237 00:52:59 22.31 Km\h Can sc 29
30/12/2014 Visibile a tutti la ricerca continua 31.21 983 03:31:03 8.87 Km\h scott genius lt 30
29/12/2014 Visibile a tutti cercando vecchi sentieri 38.39 967 03:32:05 10.86 Km\h scott genius lt 30
28/12/2014 Visibile a tutti anello Santa Cristina 12.07 552 03:34:15 3.38 Km\h scarponi
27/12/2014 Visibile a tutti lucciolando prima della neve 9.01 210 01:21:56 6.59 Km\h mizuno cascadia
24/12/2014 Visibile a tutti il kanate della vigilia 37.68 1044 03:12:34 11.74 Km\h Can sc 29
23/12/2014 Visibile a tutti il sole della lucciola 8.95 206 00:44:00 12.2 Km\h pegasus
22/12/2014 Visibile a tutti cercando il sole 62.03 1402 03:58:09 15.63 Km\h Can sc 29
19/12/2014 Visibile a tutti con la nebbia alle costole 39.43 1007 03:21:18 11.75 Km\h Merida one-five-zero
17/12/2014 Visibile a tutti aumento la distanza 11.69 107 00:55:44 12.59 Km\h pegasus
15/12/2014 Visibile a tutti ho anche intravisto il sole 50.11 1345 03:35:51 13.93 Km\h Can sc 29
13/12/2014 Visibile a tutti santa Lucia Cinghialando 43.23 1068 03:17:15 13.15 Km\h Can sc 29
12/12/2014 Visibile a tutti dietro il santa Cristina 49.88 1181 04:36:17 10.83 Km\h Can sc 29
11/12/2014 Visibile a tutti così così 9.4 95 01:08:04 8.29 Km\h mizuno cascadia
10/12/2014 Visibile a tutti per sporcarsi per bene 39.27 1103 03:32:15 11.1 Km\h Specialzed FSR comp 2003
09/12/2014 Visibile a tutti aria secca 9.44 91 00:42:43 13.26 Km\h pegasus
09/12/2014 Visibile a tutti corsa inaspetattamente positiva 116.61 1713 10:59:27 10.61 Km\h pegasus
08/12/2014 Visibile a tutti Monte Marcello 26.26 823 03:38:43 7.2 Km\h scott genius lt 30
06/12/2014 Visibile a tutti sabato di nebbia sui colli 52.11 1022 03:32:07 14.74 Km\h Can sc 29
04/12/2014 Visibile a tutti girozzo con Danilo 35.02 810 02:38:21 13.27 Km\h Can sc 29
03/12/2014 Visibile a tutti FW discreto 9.43 94 01:09:21 8.16 Km\h mizuno cascadia
02/12/2014 Visibile a tutti il tagliando alla macchina 39.42 34 02:43:41 14.45 Km\h Merida one-five-zero
30/11/2014 Visibile a tutti November mtb: escursione CAI fi fine stagione 9.85 439 01:27:26 6.76 Km\h scott genius lt 30
29/11/2014 Visibile a tutti November mtb: su e giù, avanti e indrè 84 1673 05:07:04 16.41 Km\h Can sc 29
28/11/2014 Visibile a tutti november run: e vai con l\\\'acqua 9.37 84 00:42:23 13.26 Km\h pegasus
26/11/2014 Visibile a tutti Grande Guerra trek: trek urbano a rovereto 13.04 266 02:38:30 4.94 Km\h salomon
25/11/2014 Visibile a tutti Grande Guerra MTB: sulle tracce del \"fronte immobile 63.25 424 05:05:47 12.41 Km\h Can sc 29
22/11/2014 Visibile a tutti November mtb: abbiamo anche cinghialato! 61.77 1538 04:20:11 14.25 Km\h Can sc 29
21/11/2014 Visibile a tutti november FW: camminare per camminare 6.38 39 00:49:12 7.78 Km\h mizuno cascadia
20/11/2014 Visibile a tutti November mtb: Stuzzano, Rigollo, Aione 48.03 1197 03:18:20 14.53 Km\h Can sc 29
18/11/2014 Visibile a tutti November mtb: sopra la nebbia 52.28 1202 03:35:15 14.57 Km\h Can sc 29
17/11/2014 Visibile a tutti november run: running iin the rain 9.35 90 00:43:51 12.79 Km\h pegasus
14/11/2014 Visibile a tutti November mtb: con Danilo dopo la pioggia 35.38 846 02:40:23 13.23 Km\h Can sc 29
14/11/2014 Visibile a tutti November mtb : il bis con Flora 42.64 864 03:47:24 11.25 Km\h Can sc 29
12/11/2014 Visibile a tutti November FW: FW in the rain 9.49 96 01:09:02 8.25 Km\h mizuno cascadia
10/11/2014 Visibile a tutti November run: che fatica 9.38 92 00:44:15 12.72 Km\h pegasus
08/11/2014 Visibile a tutti un pò fango e un pò no 56.71 1304 04:19:21 13.12 Km\h Can sc 29
07/11/2014 Visibile a tutti riprendo a correre 9.36 89 00:44:54 12.51 Km\h pegasus
04/11/2014 Visibile a tutti November FW: tra sole e pioggia 9.8 239 01:07:57 8.65 Km\h mizuno cascadia
03/11/2014 Visibile a tutti November mtb: lunedì sofferto 49.73 1326 04:09:42 11.95 Km\h Can sc 29
02/11/2014 Visibile a tutti November mtb 67.98 154 04:25:08 15.38 Km\h Can sc 29
31/10/2014 Visibile a tutti Grande Guerra mtb: monte Maggio 29.88 1081 03:42:24 8.06 Km\h scott genius lt 30
30/10/2014 Visibile a tutti a zonzo con Danilo 48.29 1371 03:55:44 12.29 Km\h Can sc 29
28/10/2014 Visibile a tutti girovagando 34.68 1111 03:39:09 9.49 Km\h scott genius lt 30
27/10/2014 Visibile a tutti FW positivo 9.43 93 01:07:56 8.33 Km\h mizuno cascadia
26/10/2014 Visibile a tutti Flora e il giro di Rigollo 47.84 1012 04:08:01 11.57 Km\h Can sc 29
25/10/2014 Visibile a tutti in giro coi...forti 62.83 1708 04:50:32 12.97 Km\h Can sc 29
23/10/2014 Visibile a tutti Con Danilo sulle coste di Cergallina e Vernasca 42.06 893 03:20:56 12.56 Km\h Can sc 29
22/10/2014 Visibile a tutti Kanate Ventoso 34.39 1040 03:29:37 9.84 Km\h scott genius lt 30
21/10/2014 Visibile a tutti FW rigenerante 9.43 96 01:09:51 8.1 Km\h mizuno cascadia
20/10/2014 Visibile a tutti Grande guerra Trek: il Monteghello 13.7 328 03:31:56 3.88 Km\h Specialzed FSR comp 2003
19/10/2014 Visibile a tutti La Valle dei Mulini (Garda) 37.65 1091 04:16:35 8.8 Km\h Can sc 29
18/10/2014 Visibile a tutti monte Creino 57.2 1662 06:16:58 9.1 Km\h Can sc 29
16/10/2014 Visibile a tutti maghina e cinghiali 52.78 1231 03:44:43 14.09 Km\h Can sc 29
14/10/2014 Visibile a tutti lunga cavalcata dopo la pioggia 65.03 1483 04:27:55 14.56 Km\h Can sc 29
10/10/2014 Visibile a tutti corsa o nuoto? 12.08 171 00:55:03 13.16 Km\h pegasus
07/10/2014 Visibile a tutti FW con satelliti dispettosi 9.94 123 01:09:26 8.59 Km\h mizuno cascadia
06/10/2014 Visibile a tutti Lusignani, Piandolo, Rigollo, Borla, Cergallina 59.98 1488 04:33:40 13.15 Km\h Can sc 29
03/10/2014 Visibile a tutti quattro pedalate con Flora 19.77 441 01:55:42 10.25 Km\h Can sc 29
02/10/2014 Visibile a tutti uscita del giovedì mattina 44.99 914 03:13:32 13.95 Km\h Can sc 29
30/09/2014 Visibile a tutti Kanate + S.Cristina 48.4 1527 04:19:31 11.19 Km\h Can sc 29
28/09/2014 Visibile a tutti Grande Guerra mtb: monte Zugna-Passo Buole 47.1 1700 05:45:21 8.18 Km\h scott genius lt 30
27/09/2014 Visibile a tutti Grande Guerra mtb: monte pasubio 38.55 1615 04:58:36 7.75 Km\h scott genius lt 30
24/09/2014 Visibile a tutti l\'ora del fanale 21.83 578 02:10:33 10.03 Km\h Specialzed FSR comp 2003
23/09/2014 Visibile a tutti la Milanese da Pozzolo 58.25 1357 05:15:01 11.1 Km\h scott genius lt 30
22/09/2014 Visibile a tutti FW veloce col gps che si pianta 6.68 56 00:44:39 8.98 Km\h mizuno cascadia
21/09/2014 Visibile a tutti MAM (Marmagna all mountain)2014 20.52 1086 03:46:38 5.43 Km\h scott genius lt 30
19/09/2014 Visibile a tutti Case Cavallo con Flora 25.75 707 02:49:22 9.12 Km\h Specialzed FSR comp 2003
18/09/2014 Visibile a tutti FW positivo 9.44 93 01:08:30 8.26 Km\h mizuno cascadia
17/09/2014 Visibile a tutti pedalando con Danilo 31.04 823 03:07:20 9.94 Km\h scott genius lt 30
16/09/2014 Visibile a tutti FW con umidità 9.37 91 01:09:44 8.06 Km\h mizuno cascadia
14/09/2014 Visibile a tutti Il giro del Monte Barigazzo 31.13 1164 04:31:45 6.87 Km\h scott genius lt 30
13/09/2014 Visibile a tutti Torre Marchesi e nuovo Combù 42.53 734 03:53:55 10.91 Km\h scott genius lt 30
12/09/2014 Visibile a tutti Cogolonchio della Battaglia 35.71 519 03:20:36 10.68 Km\h scott genius lt 30
11/09/2014 Visibile a tutti FW mattutino 9.44 89 01:08:15 8.3 Km\h mizuno cascadia
11/09/2014 Visibile a tutti ricerca e prova sentieri 25.98 591 02:12:50 11.74 Km\h scott genius lt 30
10/09/2014 Visibile a tutti prova modifiche bdc e gambe 48.04 995 02:11:59 21.84 Km\h Merida 901
09/09/2014 Visibile a tutti col temporale sulla testa 16.29 284 01:33:10 10.49 Km\h scott genius lt 30
07/09/2014 Visibile a tutti Navert Adventures 44.81 1520 05:46:44 7.75 Km\h scott genius lt 30
06/09/2014 Visibile a tutti nuove vie e vecchi sentieri franati 48.17 1251 04:14:04 11.38 Km\h scott genius lt 30
05/09/2014 Visibile a tutti Il combù di Flora 26.22 460 02:44:50 9.54 Km\h scott genius lt 30
04/09/2014 Visibile a tutti per provare la bdc 34.77 529 01:25:47 24.32 Km\h Merida 901
03/09/2014 Visibile a tutti è dura la corsa! 6.96 58 00:32:10 12.99 Km\h pegasus
02/09/2014 Visibile a tutti Pedalata dopo pedalata 37.13 1134 03:57:05 9.4 Km\h scott genius lt 30
01/09/2014 Visibile a tutti Pellegrinaggio 24.35 44 03:26:42 7.07 Km\h mizuno cascadia
31/08/2014 Visibile a tutti Costa di Cergallina e Costa di Vigoleno 46.68 951 04:56:15 9.45 Km\h scott genius lt 30
30/08/2014 Visibile a tutti il giro perfetto 56.57 1458 04:42:10 12.03 Km\h scott genius lt 30
29/08/2014 Visibile a tutti riprendo a correre 7.05 62 00:33:51 12.5 Km\h pegasus
28/08/2014 Visibile a tutti Cangelasio-Grotta-zanzare 19.27 410 01:44:03 11.11 Km\h Merida one-five-zero
26/08/2014 Visibile a tutti Tabiano-Granelli 21.66 573 02:31:38 8.57 Km\h scott genius lt 30
24/08/2014 Visibile a tutti Mariano_Scansano_Tabiano 47.97 1029 05:11:05 9.25 Km\h scott genius lt 30
22/08/2014 Visibile a tutti Fw delle costole doloranti 9.68 174 01:10:15 8.27 Km\h mizuno cascadia
21/08/2014 Visibile a tutti Riserva e zanzare 32.8 759 03:07:25 10.5 Km\h scott genius lt 30
19/08/2014 Visibile a tutti ravanando attorno al Kanate 32.46 701 02:35:42 12.51 Km\h Merida one-five-zero
15/08/2014 Visibile a tutti 4 passi fra i sassi in val Travenanzes 12.15 568 04:33:32 2.67 Km\h scarponi
14/08/2014 Visibile a tutti longiaru (diritto) e la valle dei mulini 44.3 1273 04:49:48 9.17 Km\h Merida one-five-zero
13/08/2014 Visibile a tutti attorno a San Cassiano 15.03 404 03:12:49 4.68 Km\h salomon
12/08/2014 Visibile a tutti Col Gallina 22.33 866 03:30:28 6.37 Km\h Merida one-five-zero
11/08/2014 Visibile a tutti Colfosco_Cima Puez e rit 15.56 906 05:08:38 3.03 Km\h scarponi
10/08/2014 Visibile a tutti sentiero Kaiserjager_gallerie del Lagazuoi_cengia Martini 7.84 781 02:52:28 2.73 Km\h scarponi
08/08/2014 Visibile a tutti Campeggio_La Villa_La Val_Sass de la Crusc_S.Cassiano_campeggio 39.14 1127 04:50:57 8.07 Km\h Merida one-five-zero
07/08/2014 Visibile a tutti Longiarù rovescio 42.17 1162 04:48:35 8.77 Km\h Merida one-five-zero
06/08/2014 Visibile a tutti Campeggio_m.te Sief_Col di Lana_Teriol Ladin_passo Valparola 18.02 1261 05:45:16 3.13 Km\h scarponi
04/08/2014 Visibile a tutti campeggio_Pralongià_Corvara_Campeggio 30.25 943 03:25:46 8.82 Km\h Merida one-five-zero
03/08/2014 Visibile a tutti Campeggio_pralongià_La Ila 17.27 564 02:57:11 5.85 Km\h salomon
28/07/2014 Visibile a tutti lo scempio del monte Pianazzo 21.43 417 01:58:20 10.87 Km\h Merida one-five-zero
27/07/2014 Visibile a tutti in compagnia sui colli salsesi 26.99 719 02:24:26 11.21 Km\h Merida one-five-zero
24/07/2014 Visibile a tutti corsetta (per non perdere il vizio) 7.01 59 00:32:43 12.86 Km\h pegasus
23/07/2014 Visibile a tutti Fit Walking 7.02 62 00:52:31 8.02 Km\h mizuno cascadia
22/07/2014 Visibile a tutti nuove tracce a Cangelasio 23.7 442 01:57:16 12.13 Km\h
20/07/2014 Visibile a tutti rif Gran Tournalin-Champoluc 11.06 25 00:37:51 17.53 Km\h Merida one-five-zero
19/07/2014 Visibile a tutti Champoluc-Monte Croce 16.16 1525 03:31:31 4.58 Km\h Merida one-five-zero
17/07/2014 Visibile a tutti Casalino Flo 25.99 500 02:31:06 10.32 Km\h Merida one-five-zero
16/07/2014 Visibile a tutti Fw con satelliti capricciosdi 7.44 62 00:53:58 8.27 Km\h mizuno cascadia
15/07/2014 Visibile a tutti allenamento al parco di Tabiano 18.3 440 02:08:35 8.54 Km\h Merida one-five-zero
13/07/2014 Visibile a tutti tabiano-monte manulo 36.19 849 03:25:25 10.57 Km\h scott genius lt 30
12/07/2014 Visibile a tutti fw ciclabile da bicishop 7.3 51 01:10:41 6.19 Km\h mizuno cascadia
11/07/2014 Visibile a tutti case Ratti _Flo 21.67 527 02:12:42 9.8 Km\h Merida one-five-zero
06/07/2014 Visibile a tutti Lunga Marcia dei 100 Laghi 15.15 879 03:19:35 4.56 Km\h salomon
05/07/2014 Visibile a tutti da Cergallina ad Aione 49.29 1184 04:03:25 12.15 Km\h scott genius lt 30
04/07/2014 Visibile a tutti Faieto_flo 18.88 387 02:06:14 8.97 Km\h Merida one-five-zero
03/07/2014 Visibile a tutti Casalino_Combù_ 35.15 933 02:59:41 11.74 Km\h Merida one-five-zero
01/07/2014 Visibile a tutti ai Barboj 17.98 598 02:08:13 8.42 Km\h scott genius lt 30
30/06/2014 Visibile a tutti corsetta con le gambe dure 6.97 80 00:32:47 12.76 Km\h pegasus
28/06/2014 Visibile a tutti la Vecia Ferovia 50.36 1176 05:14:07 9.62 Km\h scott genius lt 30
26/06/2014 Visibile a tutti Tremalzo_orario 38.63 1463 05:09:01 7.5 Km\h scott genius lt 30
24/06/2014 Visibile a tutti Tiarno di sotto-Bocca Giumella-p.so Giovo-Tiarno di sopra 28.81 957 03:12:59 8.96 Km\h scott genius lt 30
23/06/2014 Visibile a tutti giro del lago 10.4 488 01:15:58 8.22 Km\h salomon
22/06/2014 Visibile a tutti Rif Pernici_sent 402_Pranzo_Tenno_Riva Ponale 47.82 1588 06:08:39 7.78 Km\h scott genius lt 30
21/06/2014 Visibile a tutti Tremalzo-p.so Nota-sent 421 39.37 1355 04:20:56 9.05 Km\h scott genius lt 30
19/06/2014 Visibile a tutti FW nervoso 11.55 112 01:24:33 8.2 Km\h mizuno cascadia
18/06/2014 Visibile a tutti la Maghina 26.73 698 02:15:34 11.83 Km\h Merida one-five-zero
14/06/2014 Visibile a tutti ravanando attorno al Kanate 47.29 1107 04:12:34 11.23 Km\h scott genius lt 30
12/06/2014 Visibile a tutti In giro con Danilo 39.68 1078 03:49:18 10.38 Km\h scott genius lt 30
11/06/2014 Visibile a tutti giro di Pellegrino 38.77 598 02:12:21 17.58 Km\h Merida 901
08/06/2014 Visibile a tutti Barigazzo corso CAI 29.63 1029 04:14:37 6.98 Km\h scott genius lt 30
07/06/2014 Visibile a tutti S Cristina diverso 52.85 1494 04:38:04 11.4 Km\h scott genius lt 30
05/06/2014 Visibile a tutti giro_lucciola 9.15 209 01:21:58 6.7 Km\h mizuno cascadia
04/06/2014 Visibile a tutti dopo Roma 24.55 475 02:01:05 12.16 Km\h Merida one-five-zero
03/06/2014 Visibile a tutti corsa breve 7.01 56 00:31:14 13.47 Km\h pegasus
01/06/2014 Visibile a tutti lungo il tevere 9.7 109 02:05:38 4.63 Km\h salomon
01/06/2014 Visibile a tutti nella pineta di castel fusano 16.09 31 03:42:54 4.33 Km\h salomon
29/05/2014 Visibile a tutti cangelasio_casalino_combù 24.21 531 02:11:44 11.03 Km\h Merida one-five-zero
27/05/2014 Visibile a tutti FW con le gambe dure 9.4 92 01:18:33 7.18 Km\h mizuno cascadia
25/05/2014 Visibile a tutti Pieve di Ledro_Riva delGarda 36.01 828 03:35:33 10.02 Km\h scott genius lt 30
24/05/2014 Visibile a tutti Riva del garda_Pieve di Ledro 27.23 1073 02:55:02 9.33 Km\h scott genius lt 30
23/05/2014 Visibile a tutti nel sole e nel vento 9.23 96 01:18:37 7.04 Km\h mizuno cascadia
21/05/2014 Visibile a tutti nella bolla umida 9.46 93 01:24:08 6.75 Km\h mizuno cascadia
20/05/2014 Visibile a tutti nel giorno del giro 47.38 1171 04:07:38 11.48 Km\h scott genius lt 30
17/05/2014 Visibile a tutti S.Cristina_stuzzano_Stirone_besozzola_S.Antonio 68.77 1707 05:21:01 12.85 Km\h scott genius lt 30
15/05/2014 Visibile a tutti Stirone_stirpi_Flo 26.7 377 02:30:27 10.65 Km\h Merida one-five-zero
14/05/2014 Visibile a tutti vento contrario 9.41 91 00:42:23 13.32 Km\h pegasus
12/05/2014 Visibile a tutti FW rigenerante 7.21 66 01:02:27 6.92 Km\h mizuno cascadia
11/05/2014 Visibile a tutti esercizi di guida al corso CAI mtb 5.77 252 00:53:56 6.42 Km\h scott genius lt 30
11/05/2014 Visibile a tutti escursione intorno al monte Cassio 12.12 350 01:38:55 7.35 Km\h scott genius lt 30
10/05/2014 Visibile a tutti monte inverno scansano 53.8 1319 04:31:33 11.89 Km\h scott genius lt 30
08/05/2014 Visibile a tutti nella riserva 29.03 671 02:11:43 13.23 Km\h Merida one-five-zero
06/05/2014 Visibile a tutti nel bosco con fango 24.19 661 02:16:48 10.61 Km\h Merida one-five-zero
04/05/2014 Visibile a tutti voladora_via ai monti Cai Parma 46.48 279 04:12:10 11.06 Km\h scott genius lt 30
03/05/2014 Visibile a tutti strada ponale_pregasina 22.73 749 02:43:46 8.33 Km\h scott genius lt 30
01/05/2014 Visibile a tutti il giro delle Marocche 48.44 516 04:18:42 11.24 Km\h scott genius lt 30
30/04/2014 Visibile a tutti sempre sotto la pioggia 12.1 126 01:44:23 6.96 Km\h mizuno cascadia
27/04/2014 Visibile a tutti due in uno 13.93 123 01:29:06 9.38 Km\h pegasus
26/04/2014 Visibile a tutti fw rilassante 11.64 115 01:44:52 6.66 Km\h mizuno cascadia
25/04/2014 Visibile a tutti pedalata della Liberazione 43.05 1095 03:35:31 11.98 Km\h scott genius lt 30
23/04/2014 Visibile a tutti Tabiano _ Predella 24.28 492 02:04:44 11.68 Km\h scott genius lt 30
22/04/2014 Visibile a tutti corsetta dopo Pasqua 10.94 103 00:50:06 13.11 Km\h pegasus
17/04/2014 Visibile a tutti kanate in fretta 27.57 693 02:04:12 13.32 Km\h scott genius lt 30
15/04/2014 Visibile a tutti tabiano allenamento 16.54 475 01:25:58 11.54 Km\h scott genius lt 30
14/04/2014 Visibile a tutti FW vigoroso 9.5 77 01:04:32 8.83 Km\h mizuno cascadia
12/04/2014 Visibile a tutti varano_flo 38.57 849 03:43:28 10.36 Km\h scott genius lt 30
08/04/2014 Visibile a tutti corsetta divertente 12.71 115 01:06:23 11.49 Km\h pegasus
06/04/2014 Visibile a tutti cordo CAI 9.14 281 01:20:55 6.77 Km\h scott genius lt 30
05/04/2014 Visibile a tutti nonostante la pioggerella 55.85 980 04:03:23 13.77 Km\h Merida one-five-zero
02/04/2014 Visibile a tutti corsetta dopo bici 9.33 71 00:42:05 13.31 Km\h pegasus
01/04/2014 Visibile a tutti un pò di bassa 80.06 140 05:11:07 15.44 Km\h Merida one-five-zero
30/03/2014 Visibile a tutti pedalata romantica fra le coste in fiori 35.26 734 03:27:18 10.2 Km\h scott genius lt 30
29/03/2014 Visibile a tutti herpes-case ratti 62.28 1503 04:46:07 13.06 Km\h scott genius lt 30
27/03/2014 Visibile a tutti dopo la maratona 9.61 145 00:42:59 13.41 Km\h scott genius lt 30
23/03/2014 Visibile a tutti maratona di Roma 43 349 05:08:45 8.36 Km\h scott genius lt 30
16/03/2014 Visibile a tutti triade di FW 21.95 147 02:43:05 8.08 Km\h scott genius lt 30
15/03/2014 Visibile a tutti Su e giù dal kanate e poi fino a Mariano 50.46 1323 04:23:07 11.51 Km\h scott genius lt 30
13/03/2014 Visibile a tutti orienteering 21.21 692 02:13:07 9.56 Km\h scott genius lt 30
11/03/2014 Visibile a tutti doppio allenamento 14.13 111 01:51:56 7.57 Km\h scott genius lt 30
09/03/2014 Visibile a tutti scarnafigi 22.67 80 02:52:42 7.88 Km\h scott genius lt 30
08/03/2014 Visibile a tutti varano a rovescio 44.5 1130 03:37:00 12.31 Km\h Merida one-five-zero
06/03/2014 Visibile a tutti FW breve ma intensa 7.12 52 00:58:04 7.36 Km\h scott genius lt 30
04/03/2014 Visibile a tutti FW positivo 8.87 62 01:12:26 7.34 Km\h scott genius lt 30
02/03/2014 Visibile a tutti FW dopo la pioggia 11.87 93 01:37:59 7.27 Km\h Merida one-five-zero
25/02/2014 Visibile a tutti FW e corsa 2 gg 2 sport 16.83 265 01:44:23 9.67 Km\h Merida one-five-zero
24/02/2014 Visibile a tutti sciogligambe dopo FW 20.37 108 01:55:02 10.63 Km\h Merida one-five-zero
23/02/2014 Visibile a tutti FW lungo variato 21.03 123 02:48:21 7.49 Km\h scott genius lt 30
22/02/2014 Visibile a tutti Varano_Cerreto 50.5 965 04:00:37 12.59 Km\h Merida one-five-zero
21/02/2014 Visibile a tutti FW sotto la pioggia 5.52 47 00:48:48 6.79 Km\h Merida one-five-zero
20/02/2014 Visibile a tutti FW tecnica di braccia 7.98 57 01:10:15 6.81 Km\h Merida one-five-zero
19/02/2014 Visibile a tutti corsetta tranquilla_1 9.26 62 00:42:06 13.19 Km\h pegasus
16/02/2014 Visibile a tutti 20 km a Busseto 20.09 60 02:33:49 7.84 Km\h mizuno cascadia
15/02/2014 Visibile a tutti finalmente off road 43.29 920 03:55:28 11.03 Km\h Merida one-five-zero
14/02/2014 Visibile a tutti FW di S.Valentino 11.51 89 01:36:39 7.14 Km\h mizuno cascadia
12/02/2014 Visibile a tutti FW con tecnica 7.07 48 01:02:24 6.8 Km\h mizuno cascadia
09/02/2014 Visibile a tutti FW doppio 25.54 219 03:28:50 7.34 Km\h mizuno cascadia
08/02/2014 Visibile a tutti herpes in discesa 57.95 1424 04:15:49 13.59 Km\h Merida one-five-zero
06/02/2014 Visibile a tutti allenamento del giovedì 8.84 63 01:14:04 7.16 Km\h mizuno cascadia
04/02/2014 Visibile a tutti buon allenamento 9.24 68 01:14:57 7.4 Km\h mizuno cascadia
01/02/2014 Visibile a tutti case Ratti 52.14 1128 04:04:09 12.81 Km\h scott genius lt 30
29/01/2014 Visibile a tutti Flora riprende 10.97 88 01:26:19 7.62 Km\h mizuno cascadia
28/01/2014 Visibile a tutti tra una nevicata e l\\\'altra 9.27 66 01:11:13 7.81 Km\h mizuno cascadia
26/01/2014 Visibile a tutti portovenere-riomaggiore 14.68 693 04:50:34 3.03 Km\h salomon
25/01/2014 Visibile a tutti ripresa delle ostilità 62.87 1191 04:07:56 15.21 Km\h Merida one-five-zero
23/01/2014 Visibile a tutti un buon nuovo inizio 9.34 75 01:09:03 8.12 Km\h mizuno cascadia
22/01/2014 Visibile a tutti un pò meglio 9.78 82 00:56:14 10.44 Km\h pegasus
20/01/2014 Visibile a tutti ripresa allenamenti in compagnia 9.48 60 01:02:42 9.07 Km\h pegasus
27/12/2013 Visibile a tutti Varano con crasch finale 44.88 926 03:55:14 11.45 Km\h scott genius lt 30
24/12/2013 Visibile a tutti Kanate della vigilia 37.1 1083 03:11:27 11.63 Km\h Merida one-five-zero
23/12/2013 Visibile a tutti corsetta tranquilla 11.55 84 00:52:55 13.1 Km\h scott genius lt 30
22/12/2013 Visibile a tutti FW domenicale 11.48 91 01:25:34 8.05 Km\h Merida one-five-zero
21/12/2013 Visibile a tutti sabato di pioggia..cani..cinghiali 33.22 1038 03:16:13 10.16 Km\h Merida one-five-zero
19/12/2013 Visibile a tutti Vigoleno_cergallina_rigollo_stirone 44.82 1257 04:23:13 10.22 Km\h scott genius lt 30
18/12/2013 Visibile a tutti FW veloce 7 52 00:50:08 8.38 Km\h scott genius lt 30
17/12/2013 Visibile a tutti corsa di corsa 6.97 52 00:31:53 13.12 Km\h Merida one-five-zero
12/12/2013 Visibile a tutti S.Cristina invernale 54.22 1529 04:48:01 11.29 Km\h scott genius lt 30
11/12/2013 Visibile a tutti nebbiose variazioni 7.17 57 00:58:46 7.32 Km\h Merida one-five-zero
10/12/2013 Visibile a tutti corsetta...annebbiata 9.23 62 00:43:12 12.82 Km\h scott genius lt 30
09/12/2013 Visibile a tutti FW con Flora 7.14 56 00:58:53 7.27 Km\h Merida one-five-zero
05/12/2013 Visibile a tutti escursione da escursionista 45.61 1409 04:46:55 9.54 Km\h scott genius lt 30
02/12/2013 Visibile a tutti FW medio 11.53 78 01:28:59 7.77 Km\h Merida one-five-zero
01/12/2013 Visibile a tutti il sole dopo la neve 26.55 809 02:19:55 11.39 Km\h scott genius lt 30
30/11/2013 Visibile a tutti sotto la prima neve 32.85 726 02:40:29 12.28 Km\h Merida one-five-zero
27/11/2013 Visibile a tutti gelo e stelle 19.97 611 02:07:02 9.43 Km\h Merida one-five-zero
26/11/2013 Visibile a tutti FW sotto zero 7.18 56 00:59:47 7.21 Km\h Merida one-five-zero
25/11/2013 Visibile a tutti corsetta serale con freddo secco 9.25 61 00:42:53 12.95 Km\h scott genius lt 30
22/11/2013 Visibile a tutti FW prima della pioggia 8.52 54 01:01:01 8.38 Km\h Merida one-five-zero
20/11/2013 Visibile a tutti fra stelle e pioggia 24.22 516 02:14:03 10.84 Km\h Merida one-five-zero
19/11/2013 Visibile a tutti corsetta serale 10.22 183 00:45:14 13.56 Km\h scott genius lt 30
18/11/2013 Visibile a tutti FW veloce 7.11 51 00:50:04 8.53 Km\h Merida one-five-zero
17/11/2013 Visibile a tutti FW della domenica 11.54 88 01:33:12 7.43 Km\h Merida one-five-zero
16/11/2013 Visibile a tutti cinghiali in libertà 46.03 1224 03:58:10 11.6 Km\h Merida one-five-zero
14/11/2013 Visibile a tutti walking in the rain 6.52 50 00:54:36 7.16 Km\h scott genius lt 30
11/11/2013 Visibile a tutti lungo lo Stirone 53.88 180 04:13:40 12.75 Km\h scott genius lt 30
10/11/2013 Visibile a tutti escursione a S.Fruttuoso 9.24 484 03:27:40 2.67 Km\h scott genius lt 30
09/11/2013 Visibile a tutti Cinghiali al Kanate 38.13 1188 03:34:57 10.64 Km\h Merida one-five-zero
07/11/2013 Visibile a tutti boffalora_predella_tintori 20.07 443 01:53:11 10.64 Km\h Merida one-five-zero
07/11/2013 Visibile a tutti domenica Flo 39.72 802 03:27:52 11.47 Km\h Merida one-five-zero
07/11/2013 Visibile a tutti domenica Flo 39.72 802 03:27:52 11.47 Km\h Merida one-five-zero
05/11/2013 Visibile a tutti su e giù da Cangelasio 21.26 355 01:54:52 11.11 Km\h Merida one-five-zero
03/11/2013 Visibile a tutti FW lungo 27.31 373 03:55:36 6.95 Km\h scott genius lt 30
02/11/2013 Visibile a tutti dietro S.Cristina sentiero Salvatore 51.01 1171 04:17:00 11.91 Km\h Merida one-five-zero
01/11/2013 Visibile a tutti escursione di allenamento con Flo 40.36 879 03:21:53 12 Km\h scott genius lt 30
30/10/2013 Visibile a tutti FW solo nella notte 11.69 77 01:26:49 8.08 Km\h Merida one-five-zero
28/10/2013 Visibile a tutti notturna flo tabiano 30.83 382 02:15:05 13.7 Km\h Merida one-five-zero
25/10/2013 Visibile a tutti la prima dopo l\'influenza 35.22 489 02:15:41 15.57 Km\h Merida one-five-zero
23/10/2013 Visibile a tutti Fw sofferto 9.26 78 01:18:23 7.09 Km\h scott genius lt 30
22/10/2013 Visibile a tutti FW con ossa rotte 7.2 57 00:59:09 7.3 Km\h scott genius lt 30
20/10/2013 Visibile a tutti FW lento con Flora 19.91 153 02:47:39 7.13 Km\h Merida one-five-zero
18/10/2013 Visibile a tutti ...e la notte avanza tranquilla 29.71 372 02:36:18 11.4 Km\h Merida one-five-zero
17/10/2013 Visibile a tutti FW in ripresa 7.15 56 00:57:56 7.41 Km\h scott genius lt 30
16/10/2013 Visibile a tutti uscita serale con Flora_ incompleta 24.31 211 01:42:16 14.26 Km\h Merida one-five-zero
15/10/2013 Visibile a tutti ricomincio da qui 7.03 52 01:01:37 6.85 Km\h Merida one-five-zero
12/10/2013 Visibile a tutti herpes in salita 54.99 1431 04:39:29 11.8 Km\h Merida one-five-zero
10/10/2013 Visibile a tutti corsetta di fretta 8 53 00:33:42 14.24 Km\h scott genius lt 30
09/10/2013 Visibile a tutti pioggerella antipatica 38.37 624 02:27:49 15.57 Km\h Merida one-five-zero
07/10/2013 Visibile a tutti corsetta del lunedì 9.1 72 00:40:16 13.56 Km\h scott genius lt 30
05/10/2013 Visibile a tutti FW con pioggerella 10.56 81 01:23:40 7.57 Km\h scott genius lt 30
03/10/2013 Visibile a tutti FW a Fointanellato 7.74 29 01:01:20 7.57 Km\h scott genius lt 30
02/10/2013 Visibile a tutti serale di mercoledì 27.52 702 02:22:36 11.58 Km\h Merida one-five-zero
01/10/2013 Visibile a tutti FW in pista (2 sett) 9.73 79 01:20:31 7.25 Km\h scott genius lt 30
30/09/2013 Visibile a tutti una corsetta a Salso 9.07 71 00:39:28 13.79 Km\h scott genius lt 30
29/09/2013 Visibile a tutti FW domenicale dopo la pioggia 10.6 83 01:24:09 7.56 Km\h scott genius lt 30
28/09/2013 Visibile a tutti tra vigneti e calanchi piacentini 54.3 1258 04:36:03 11.8 Km\h scott genius lt 30
25/09/2013 Visibile a tutti FW al parco 7.37 45 01:00:30 7.31 Km\h scott genius lt 30
23/09/2013 Visibile a tutti FW in pista 10.35 74 01:24:21 7.36 Km\h scott genius lt 30
21/09/2013 Visibile a tutti in val pessola 65.39 1553 04:46:41 13.68 Km\h scott genius lt 30
21/09/2013 Visibile a tutti serale monte combù 25.31 576 02:05:07 12.14 Km\h scott genius lt 30
19/09/2013 Visibile a tutti in mezzo ai cacciatori 35.25 827 03:06:44 11.33 Km\h scott genius lt 30
18/09/2013 Visibile a tutti Fw giro Lucciola 9.14 202 01:07:37 8.11 Km\h Merida one-five-zero
17/09/2013 Visibile a tutti kanate al borotalco 42.24 1165 03:33:13 11.89 Km\h scott genius lt 30
16/09/2013 Visibile a tutti fw di s.rocchino 14.43 149 01:45:31 8.21 Km\h Merida one-five-zero
14/09/2013 Visibile a tutti Monte Inverno di Andrea e Giulio 52.11 1480 04:46:34 10.91 Km\h scott genius lt 30
12/09/2013 Visibile a tutti in Predella a vedere le moto da cross 32.54 871 02:52:27 11.32 Km\h scott genius lt 30
11/09/2013 Visibile a tutti allenamento FW 6.29 35 00:53:35 7.04 Km\h Merida one-five-zero
10/09/2013 Visibile a tutti cangelasio sotto sopra 25.26 640 02:16:43 11.08 Km\h scott genius lt 30
09/09/2013 Visibile a tutti FW tranquillo con allunghi 8.3 53 01:10:04 7.11 Km\h scott genius lt 30
07/09/2013 Visibile a tutti casa del ghiro fabbrica delle foglie 2013 54.63 1470 04:30:41 12.11 Km\h scott genius lt 30
05/09/2013 Visibile a tutti il feroce veloce 22.68 653 01:58:58 11.44 Km\h scott genius lt 30
04/09/2013 Visibile a tutti FW giro salso corto 9.26 148 01:07:38 8.21 Km\h Merida one-five-zero
03/09/2013 Visibile a tutti martedì cop 23.31 641 01:55:43 12.09 Km\h scott genius lt 30
02/09/2013 Visibile a tutti passeggiata con Flo 5.72 45 00:56:52 6.04 Km\h Merida one-five-zero
01/09/2013 Visibile a tutti Fw in pista ciclabile 10.61 64 01:29:53 7.08 Km\h scott genius lt 30
01/09/2013 Visibile a tutti pedalata lungo il parco dello Stirone 25.34 179 02:01:45 12.49 Km\h scott genius lt 30
31/08/2013 Visibile a tutti Melesi 2013 55.31 1251 04:27:45 12.39 Km\h scott genius lt 30
30/08/2013 Visibile a tutti mondo piccolo 37.5 87 02:07:42 17.62 Km\h scott genius lt 30
27/08/2013 Visibile a tutti tra un temporale e l\'altro 26.9 572 02:06:48 12.73 Km\h scott genius lt 30
25/08/2013 Visibile a tutti escursione delle terme 41.64 923 02:56:30 14.16 Km\h Merida one-five-zero
21/08/2013 Visibile a tutti FW giro Salso - s nicomede 17.23 160 01:56:52 8.84 Km\h Merida one-five-zero
20/08/2013 Visibile a tutti quelli che il martedì mattina 30.1 824 02:51:04 10.56 Km\h scott genius lt 30
16/08/2013 Visibile a tutti brunico_Valdaora 12.23 360 01:55:29 6.35 Km\h scott genius lt 30
15/08/2013 Visibile a tutti 3 passi e un pò 51.68 1632 04:33:42 11.33 Km\h scott genius lt 30
13/08/2013 Visibile a tutti pederù-sass d\'lacia 16.5 708 02:36:55 6.31 Km\h scott genius lt 30
12/08/2013 Visibile a tutti su e giù per i pralongià 32.05 1366 03:09:22 10.16 Km\h scott genius lt 30
11/08/2013 Visibile a tutti pralongià-campolongo-crusc 45.02 1577 04:24:53 10.2 Km\h scott genius lt 30
10/08/2013 Visibile a tutti attorno al Putia 11.82 628 03:19:12 3.56 Km\h Merida one-five-zero
08/08/2013 Visibile a tutti pralongià-gardenacia-pralongià 39.9 1710 03:18:02 12.09 Km\h scott genius lt 30
07/08/2013 Visibile a tutti pederù-croda del becco 21.48 1168 06:14:14 3.44 Km\h scarponi
06/08/2013 Visibile a tutti pralongià-corvara-crusc 50.81 2072 04:39:32 10.91 Km\h scott genius lt 30
05/08/2013 Visibile a tutti sciogli gambe dopo la \\ 5.01 63 00:47:17 6.36 Km\h salomon
04/08/2013 Visibile a tutti camignada 31.1 1206 05:52:14 5.3 Km\h salomon
03/08/2013 Visibile a tutti sciogli gambe prima della \\\\ 6.46 68 00:58:14 6.66 Km\h salomon
01/08/2013 Visibile a tutti giro salso depuratore 9.08 73 00:41:46 13.04 Km\h pegasus
31/07/2013 Visibile a tutti FW giro salso breve 7.1 53 01:02:59 6.76 Km\h mizuno cascadia
30/07/2013 Visibile a tutti avanti e indietro da cangelasio 28.15 674 02:26:31 11.53 Km\h Merida one-five-zero
28/07/2013 Visibile a tutti Marra_cirone_bosco 18.24 646 03:05:38 5.89 Km\h salomon
27/07/2013 Visibile a tutti s_cristina_fabbtica foglie trail 49.5 1377 04:20:40 11.39 Km\h scott genius lt 30
25/07/2013 Visibile a tutti il pratone lascia il segno 19.01 623 01:57:17 9.73 Km\h scott genius lt 30
23/07/2013 Visibile a tutti stuzzano veloce 36.39 732 02:32:51 14.28 Km\h scott genius lt 30
21/07/2013 Visibile a tutti cisa_cirone_berceto_cisa 27.98 835 04:53:26 5.72 Km\h salomon
20/07/2013 Visibile a tutti alta val stirone_varianti_andrea 47.04 1075 04:08:03 11.38 Km\h scott genius lt 30
18/07/2013 Visibile a tutti su e giù dietro casa 23.22 676 02:06:45 10.99 Km\h scott genius lt 30
15/07/2013 Visibile a tutti fornovo_citerna 28.13 733 02:26:32 11.52 Km\h scott genius lt 30
13/07/2013 Visibile a tutti su strada con moglie 49.87 797 03:00:49 16.55 Km\h Merida one-five-zero
11/07/2013 Visibile a tutti Combù e altre amenità 26.04 638 02:12:41 11.78 Km\h scott genius lt 30
09/07/2013 Visibile a tutti su e giù per il kanate_cop 31.41 872 02:26:23 12.88 Km\h scott genius lt 30
08/07/2013 Visibile a tutti cabriolo-coduro 34.11 210 02:05:56 16.25 Km\h Merida one-five-zero
03/07/2013 Visibile a tutti come le prime volte 26.76 603 02:00:22 13.34 Km\h scott genius lt 30
29/06/2013 Visibile a tutti S Lorenzo Sebato-campo Tures- S giovanni 59.84 333 04:10:00 14.36 Km\h scott genius lt 30
25/06/2013 Visibile a tutti S Lorenzo Sebato-fortezza-bressanone 47.92 413 03:22:06 14.23 Km\h scott genius lt 30
23/06/2013 Visibile a tutti S Lorenzo Sebato-Villabassa 64.45 660 04:43:26 13.64 Km\h scott genius lt 30
19/06/2013 Visibile a tutti il canalone del nonno 27.74 730 02:24:40 11.5 Km\h scott genius lt 30
13/06/2013 Visibile a tutti il primo da nonno 28.37 613 01:55:59 14.68 Km\h scott genius lt 30
09/06/2013 Visibile a tutti primi guadi 51.54 1273 04:14:46 12.14 Km\h scott genius lt 30
07/06/2013 Visibile a tutti venerdì Cop 27.93 679 02:15:06 12.41 Km\h scott genius lt 30
04/06/2013 Visibile a tutti allenamento bucato 17.44 504 01:43:56 10.07 Km\h scott genius lt 30
03/06/2013 Visibile a tutti pedalata con Flo 27.07 135 01:46:25 15.26 Km\h Merida one-five-zero
30/05/2013 Visibile a tutti ravanando dietro casa 29.58 926 03:09:04 9.39 Km\h scott genius lt 30
29/05/2013 Visibile a tutti direttissima cop_variante fabio 32.14 951 02:48:13 11.46 Km\h scott genius lt 30
26/05/2013 Visibile a tutti pietra nera 27.32 803 02:31:30 10.82 Km\h scott genius lt 30
26/05/2013 Visibile a tutti escursione iat 44.65 198 03:02:22 14.69 Km\h Merida one-five-zero
23/05/2013 Visibile a tutti fango al kanate 36.44 1049 03:11:20 11.43 Km\h scott genius lt 30
20/05/2013 Visibile a tutti mtb con Flora 18.66 385 01:59:13 9.39 Km\h scott genius lt 30
19/05/2013 Visibile a tutti con Flora 45.43 539 02:34:55 17.6 Km\h scott genius lt 30
18/05/2013 Visibile a tutti circonvallazione kanate_s cristina 51.37 1394 04:30:20 11.4 Km\h Merida one-five-zero
14/05/2013 Visibile a tutti per provare la genius 23.91 741 02:15:27 10.59 Km\h scott genius lt 30
11/05/2013 Visibile a tutti verso il carameto 70.41 1733 05:02:42 13.96 Km\h Merida one-five-zero
09/05/2013 Visibile a tutti direttissima kanate 33.98 997 03:12:29 10.59 Km\h Merida one-five-zero
05/05/2013 Visibile a tutti c\'ho provato 20.44 470 01:19:42 15.39 Km\h Merida one-five-zero
02/05/2013 Visibile a tutti 2 maggio 34.8 833 03:01:34 11.5 Km\h Merida one-five-zero
01/05/2013 Visibile a tutti 1 maggio 37.87 911 03:04:47 12.3 Km\h Merida one-five-zero
25/04/2013 Visibile a tutti Grazie...Peschiera 99.73 175 06:32:48 15.23 Km\h Merida one-five-zero
18/04/2013 Visibile a tutti monte manulo 2013 38.16 987 03:11:56 11.93 Km\h Merida one-five-zero
17/04/2013 Visibile a tutti kanate perfetto 42.46 1268 03:39:19 11.62 Km\h Merida one-five-zero
13/04/2013 Visibile a tutti vernasca 49.05 884 03:49:28 12.83 Km\h Merida one-five-zero
11/04/2013 Visibile a tutti un allenamento come un altro 35.35 908 02:49:06 12.54 Km\h Merida one-five-zero
06/04/2013 Visibile a tutti herpes 58.2 1498 04:37:34 12.58 Km\h Merida one-five-zero
04/04/2013 Visibile a tutti prova pignoni 38.27 870 02:47:37 13.7 Km\h Merida one-five-zero
01/04/2013 Visibile a tutti pasquetta sfigata 33.83 793 02:43:35 12.41 Km\h Merida one-five-zero
28/03/2013 Visibile a tutti giovedì di pioggia 2 36.46 623 02:50:03 12.86 Km\h Merida one-five-zero
21/03/2013 Visibile a tutti giovedì di sole 34.95 925 02:57:09 11.84 Km\h Merida one-five-zero
14/03/2013 Visibile a tutti giovedi di pioggia 25 572 02:10:44 11.47 Km\h Merida one-five-zero
09/03/2013 Visibile a tutti vianino- aione 57.28 1229 04:01:55 14.21 Km\h Merida one-five-zero
03/03/2013 Visibile a tutti colorno-brescello 48.93 69 03:47:28 12.91 Km\h Merida one-five-zero
02/03/2013 Visibile a tutti colorno parma e rit 65.95 177 04:28:01 14.76 Km\h Merida one-five-zero
28/02/2013 Visibile a tutti val siccomonte-cogolonchio 35.75 715 02:52:53 12.41 Km\h Merida one-five-zero
21/02/2013 Visibile a tutti nevante 2 19.5 451 02:29:39 7.82 Km\h Merida one-five-zero
16/02/2013 Visibile a tutti kanate molta neve 39.19 1063 03:35:19 10.92 Km\h Merida one-five-zero
09/02/2013 Visibile a tutti vianino_piandolo 56.79 1279 04:16:49 13.27 Km\h Merida one-five-zero
07/02/2013 Visibile a tutti il solito giovedì 29.85 817 02:47:12 10.71 Km\h Merida one-five-zero
03/02/2013 Visibile a tutti dopo la pioggia 31.44 784 02:59:50 10.49 Km\h Merida one-five-zero
31/01/2013 Visibile a tutti fuori dalla nebbia 30.61 808 02:46:44 11.02 Km\h Merida one-five-zero
19/01/2013 Visibile a tutti cop neve 30.03 763 02:49:01 10.66 Km\h Merida one-five-zero
17/01/2013 Visibile a tutti nevante 23.49 564 02:35:17 9.07 Km\h Merida one-five-zero
29/12/2012 Visibile a tutti cergallina fangosa 38.67 931 03:13:44 11.97 Km\h Merida one-five-zero
22/12/2012 Visibile a tutti cinghiali in riserva 36.12 856 03:04:42 11.74 Km\h Merida one-five-zero
20/12/2012 Visibile a tutti ghiaccio e neve 21.67 659 02:11:32 9.89 Km\h Merida one-five-zero
16/12/2012 Visibile a tutti tra fango e neve 31.16 742 03:01:40 10.29 Km\h Merida one-five-zero
13/12/2012 Visibile a tutti montemanulo rovescio neve 24.47 898 02:48:19 8.72 Km\h Merida one-five-zero
08/12/2012 Visibile a tutti kanate neve 33.09 866 03:29:23 9.48 Km\h Merida one-five-zero
06/12/2012 Visibile a tutti muovere le gambe 32 876 02:45:30 11.6 Km\h Merida one-five-zero
29/11/2012 Visibile a tutti uno sprazzo di sole 27.45 665 02:22:24 11.57 Km\h Merida one-five-zero
25/11/2012 Visibile a tutti domenica Cop 30.28 732 02:29:15 12.17 Km\h Merida one-five-zero
17/11/2012 Visibile a tutti montemanulo_rovescio